2016 Cux-Wetter.de -Die Nutzung der Wetterdaten nur mit ausdrcklicher Genehmigung
Wetterdaten: Sonntag, 15.05.2016
Datum Zeit Temp. A. Feuchte A. Luftdruck Regen Wind Richtung Richtung Sonnenschein Solar Taupunkt Windchill Windben
15.05.2016 00:00 9,2 C 80 % 1009,4 hPa 0,0 l/m 17,3 km/h (3 Bft) NW 315 0 min 0 W/m 5,9 C 3,2 C 27,4 km/h (5 Bft)
15.05.2016 00:03 9,3 C 80 % 1009,5 hPa 0,0 l/m 20,2 km/h (4 Bft) NW 326 0 min 0 W/m 6,0 C 2,3 C 35,4 km/h (5 Bft)
15.05.2016 00:06 9,3 C 80 % 1009,5 hPa 0,0 l/m 19,3 km/h (3 Bft) NW 320 0 min 0 W/m 6,0 C 2,6 C 32,2 km/h (5 Bft)
15.05.2016 00:09 9,3 C 80 % 1009,6 hPa 0,0 l/m 18,8 km/h (3 Bft) N-NW 344 0 min 0 W/m 6,0 C 2,8 C 30,6 km/h (5 Bft)
15.05.2016 00:12 9,3 C 80 % 1009,6 hPa 0,0 l/m 16,9 km/h (3 Bft) N-NW 333 0 min 0 W/m 6,0 C 3,5 C 27,4 km/h (5 Bft)
15.05.2016 00:15 9,3 C 80 % 1009,5 hPa 0,0 l/m 16,8 km/h (3 Bft) N-NW 327 0 min 0 W/m 6,0 C 3,5 C 27,4 km/h (5 Bft)
15.05.2016 00:18 9,3 C 80 % 1009,7 hPa 0,0 l/m 21,0 km/h (4 Bft) N 351 0 min 0 W/m 6,0 C 2,1 C 33,8 km/h (5 Bft)
15.05.2016 00:21 9,3 C 79 % 1009,6 hPa 0,0 l/m 20,6 km/h (4 Bft) W-NW 294 0 min 0 W/m 5,8 C 2,2 C 32,2 km/h (5 Bft)
15.05.2016 00:24 9,3 C 80 % 1009,7 hPa 0,0 l/m 20,1 km/h (4 Bft) N-NW 346 0 min 0 W/m 6,0 C 2,3 C 35,4 km/h (5 Bft)
15.05.2016 00:27 9,3 C 79 % 1009,7 hPa 0,0 l/m 18,7 km/h (3 Bft) N 355 0 min 0 W/m 5,8 C 2,8 C 30,6 km/h (5 Bft)
15.05.2016 00:30 9,3 C 79 % 1009,7 hPa 0,0 l/m 17,9 km/h (3 Bft) N-NW 334 0 min 0 W/m 5,8 C 3,1 C 27,4 km/h (5 Bft)
15.05.2016 00:33 9,3 C 79 % 1009,8 hPa 0,0 l/m 16,5 km/h (3 Bft) NW 312 0 min 0 W/m 5,8 C 3,7 C 27,4 km/h (5 Bft)
15.05.2016 00:36 9,3 C 80 % 1009,8 hPa 0,0 l/m 18,9 km/h (3 Bft) N-NW 331 0 min 0 W/m 6,0 C 2,8 C 37,0 km/h (5 Bft)
15.05.2016 00:39 9,3 C 79 % 1009,8 hPa 0,0 l/m 19,5 km/h (3 Bft) W-NW 295 0 min 0 W/m 5,8 C 2,6 C 32,2 km/h (5 Bft)
15.05.2016 00:42 9,3 C 80 % 1009,8 hPa 0,0 l/m 17,0 km/h (3 Bft) NW 312 0 min 0 W/m 6,0 C 3,5 C 29,0 km/h (5 Bft)
15.05.2016 00:45 9,2 C 78 % 1009,8 hPa 0,0 l/m 18,6 km/h (3 Bft) N 355 0 min 0 W/m 5,6 C 2,7 C 30,6 km/h (5 Bft)
15.05.2016 00:48 9,2 C 78 % 1009,9 hPa 0,0 l/m 20,8 km/h (4 Bft) NW 318 0 min 0 W/m 5,6 C 2,0 C 37,0 km/h (5 Bft)
15.05.2016 00:51 9,2 C 78 % 1009,9 hPa 0,0 l/m 17,3 km/h (3 Bft) NW 319 0 min 0 W/m 5,6 C 3,2 C 25,7 km/h (4 Bft)
15.05.2016 00:54 9,2 C 79 % 1010,1 hPa 0,0 l/m 18,6 km/h (3 Bft) N-NW 333 0 min 0 W/m 5,8 C 2,7 C 30,6 km/h (5 Bft)
15.05.2016 00:57 9,2 C 78 % 1010,0 hPa 0,0 l/m 18,6 km/h (3 Bft) NW 323 0 min 0 W/m 5,6 C 2,7 C 30,6 km/h (5 Bft)
15.05.2016 01:00 9,1 C 79 % 1010,1 hPa 0,0 l/m 16,4 km/h (3 Bft) N 360 0 min 0 W/m 5,7 C 3,5 C 27,4 km/h (5 Bft)
15.05.2016 01:03 9,1 C 79 % 1010,1 hPa 0,0 l/m 17,4 km/h (3 Bft) N-NW 345 0 min 0 W/m 5,7 C 3,1 C 29,0 km/h (5 Bft)
15.05.2016 01:06 9,1 C 78 % 1010,1 hPa 0,0 l/m 17,3 km/h (3 Bft) N-NW 339 0 min 0 W/m 5,5 C 3,1 C 33,8 km/h (5 Bft)
15.05.2016 01:09 9,0 C 77 % 1010,1 hPa 0,0 l/m 22,4 km/h (4 Bft) W 279 0 min 0 W/m 5,2 C 1,2 C 32,2 km/h (5 Bft)
15.05.2016 01:12 9,0 C 77 % 1010,1 hPa 0,0 l/m 16,9 km/h (3 Bft) N 355 0 min 0 W/m 5,2 C 3,1 C 29,0 km/h (5 Bft)
15.05.2016 01:15 8,9 C 77 % 1010,1 hPa 0,0 l/m 18,8 km/h (3 Bft) N-NW 340 0 min 0 W/m 5,1 C 2,3 C 30,6 km/h (5 Bft)
15.05.2016 01:18 8,9 C 76 % 1010,1 hPa 0,0 l/m 19,7 km/h (3 Bft) W-NW 301 0 min 0 W/m 4,9 C 2,0 C 32,2 km/h (5 Bft)
15.05.2016 01:21 8,9 C 76 % 1010,1 hPa 0,0 l/m 14,6 km/h (3 Bft) NW 305 0 min 0 W/m 4,9 C 4,0 C 24,1 km/h (4 Bft)
15.05.2016 01:24 8,9 C 77 % 1010,1 hPa 0,0 l/m 18,9 km/h (3 Bft) W-NW 294 0 min 0 W/m 5,1 C 2,3 C 33,8 km/h (5 Bft)
15.05.2016 01:27 8,9 C 78 % 1010,2 hPa 0,0 l/m 17,6 km/h (3 Bft) W-NW 298 0 min 0 W/m 5,3 C 2,7 C 27,4 km/h (5 Bft)
15.05.2016 01:30 8,9 C 78 % 1010,2 hPa 0,0 l/m 16,6 km/h (3 Bft) N 360 0 min 0 W/m 5,3 C 3,1 C 29,0 km/h (5 Bft)
15.05.2016 01:33 8,9 C 77 % 1010,2 hPa 0,0 l/m 16,6 km/h (3 Bft) N-NW 327 0 min 0 W/m 5,1 C 3,1 C 29,0 km/h (5 Bft)
15.05.2016 01:36 8,9 C 78 % 1010,2 hPa 0,0 l/m 14,9 km/h (3 Bft) NW 306 0 min 0 W/m 5,3 C 3,8 C 24,1 km/h (4 Bft)
15.05.2016 01:39 8,9 C 77 % 1010,2 hPa 0,0 l/m 17,8 km/h (3 Bft) NW 321 0 min 0 W/m 5,1 C 2,7 C 29,0 km/h (5 Bft)
15.05.2016 01:42 8,8 C 77 % 1010,3 hPa 0,0 l/m 18,5 km/h (3 Bft) N 355 0 min 0 W/m 5,0 C 2,3 C 29,0 km/h (5 Bft)
15.05.2016 01:45 8,8 C 77 % 1010,3 hPa 0,0 l/m 17,3 km/h (3 Bft) N-NW 329 0 min 0 W/m 5,0 C 2,7 C 24,1 km/h (4 Bft)
15.05.2016 01:48 8,8 C 77 % 1010,3 hPa 0,0 l/m 16,2 km/h (3 Bft) NW 317 0 min 0 W/m 5,0 C 3,2 C 27,4 km/h (5 Bft)
15.05.2016 01:51 8,7 C 75 % 1010,3 hPa 0,0 l/m 20,0 km/h (4 Bft) N-NW 343 0 min 0 W/m 4,5 C 1,6 C 27,4 km/h (5 Bft)
15.05.2016 01:54 8,7 C 75 % 1010,3 hPa 0,0 l/m 19,2 km/h (3 Bft) N-NW 337 0 min 0 W/m 4,5 C 1,9 C 27,4 km/h (5 Bft)
15.05.2016 01:57 8,7 C 74 % 1010,3 hPa 0,0 l/m 17,4 km/h (3 Bft) NW 317 0 min 0 W/m 4,3 C 2,6 C 29,0 km/h (5 Bft)
15.05.2016 02:00 8,7 C 74 % 1010,3 hPa 0,0 l/m 15,6 km/h (3 Bft) W 273 0 min 0 W/m 4,3 C 3,3 C 29,0 km/h (5 Bft)
15.05.2016 02:03 8,7 C 76 % 1010,3 hPa 0,0 l/m 16,4 km/h (3 Bft) NW 319 0 min 0 W/m 4,7 C 3,0 C 27,4 km/h (5 Bft)
15.05.2016 02:06 8,7 C 77 % 1010,3 hPa 0,0 l/m 17,9 km/h (3 Bft) NW 321 0 min 0 W/m 4,9 C 2,4 C 24,1 km/h (4 Bft)
15.05.2016 02:09 8,6 C 77 % 1010,3 hPa 0,0 l/m 18,7 km/h (3 Bft) N-NW 329 0 min 0 W/m 4,8 C 1,9 C 30,6 km/h (5 Bft)
15.05.2016 02:12 8,6 C 76 % 1010,3 hPa 0,0 l/m 18,0 km/h (3 Bft) NW 309 0 min 0 W/m 4,6 C 2,2 C 29,0 km/h (5 Bft)
15.05.2016 02:15 8,6 C 76 % 1010,4 hPa 0,0 l/m 16,1 km/h (3 Bft) N-NW 332 0 min 0 W/m 4,6 C 3,0 C 29,0 km/h (5 Bft)
15.05.2016 02:18 8,6 C 76 % 1010,3 hPa 0,0 l/m 16,4 km/h (3 Bft) NW 315 0 min 0 W/m 4,6 C 2,8 C 29,0 km/h (5 Bft)
15.05.2016 02:21 8,6 C 75 % 1010,4 hPa 0,0 l/m 17,6 km/h (3 Bft) N-NW 327 0 min 0 W/m 4,4 C 2,4 C 25,7 km/h (4 Bft)
15.05.2016 02:24 8,6 C 75 % 1010,4 hPa 0,0 l/m 16,9 km/h (3 Bft) N-NW 333 0 min 0 W/m 4,4 C 2,6 C 25,7 km/h (4 Bft)
15.05.2016 02:27 8,6 C 75 % 1010,4 hPa 0,0 l/m 17,4 km/h (3 Bft) N-NW 329 0 min 0 W/m 4,4 C 2,4 C 30,6 km/h (5 Bft)
15.05.2016 02:30 8,6 C 76 % 1010,3 hPa 0,0 l/m 15,1 km/h (3 Bft) N 349 0 min 0 W/m 4,6 C 3,4 C 24,1 km/h (4 Bft)
15.05.2016 02:33 8,6 C 76 % 1010,4 hPa 0,0 l/m 10,7 km/h (2 Bft) NW 318 0 min 0 W/m 4,6 C 5,6 C 24,1 km/h (4 Bft)
15.05.2016 02:36 8,6 C 76 % 1010,3 hPa 0,0 l/m 16,4 km/h (3 Bft) N-NW 330 0 min 0 W/m 4,6 C 2,8 C 27,4 km/h (5 Bft)
15.05.2016 02:39 8,7 C 75 % 1010,4 hPa 0,0 l/m 13,2 km/h (3 Bft) NW 325 0 min 0 W/m 4,5 C 4,4 C 22,5 km/h (4 Bft)
15.05.2016 02:42 8,7 C 76 % 1010,3 hPa 0,0 l/m 16,1 km/h (3 Bft) W-NW 301 0 min 0 W/m 4,7 C 3,1 C 29,0 km/h (5 Bft)
15.05.2016 02:45 8,8 C 76 % 1010,3 hPa 0,0 l/m 13,9 km/h (3 Bft) N-NW 340 0 min 0 W/m 4,8 C 4,2 C 25,7 km/h (4 Bft)
15.05.2016 02:48 8,8 C 75 % 1010,4 hPa 0,0 l/m 13,4 km/h (3 Bft) NW 306 0 min 0 W/m 4,6 C 4,4 C 25,7 km/h (4 Bft)
15.05.2016 02:51 8,8 C 76 % 1010,3 hPa 0,0 l/m 14,3 km/h (3 Bft) NW 321 0 min 0 W/m 4,8 C 4,0 C 24,1 km/h (4 Bft)
15.05.2016 02:54 8,8 C 76 % 1010,4 hPa 0,0 l/m 13,9 km/h (3 Bft) NW 326 0 min 0 W/m 4,8 C 4,2 C 22,5 km/h (4 Bft)
15.05.2016 02:57 8,8 C 75 % 1010,4 hPa 0,0 l/m 16,1 km/h (3 Bft) N-NO 29 0 min 0 W/m 4,6 C 3,2 C 25,7 km/h (4 Bft)
15.05.2016 03:00 8,8 C 75 % 1010,5 hPa 0,0 l/m 16,1 km/h (3 Bft) N 355 0 min 0 W/m 4,6 C 3,2 C 25,7 km/h (4 Bft)
15.05.2016 03:03 8,8 C 74 % 1010,4 hPa 0,0 l/m 15,1 km/h (3 Bft) NW 315 0 min 0 W/m 4,4 C 3,6 C 25,7 km/h (4 Bft)
15.05.2016 03:06 8,7 C 74 % 1010,4 hPa 0,0 l/m 15,0 km/h (3 Bft) N 350 0 min 0 W/m 4,3 C 3,6 C 27,4 km/h (5 Bft)
15.05.2016 03:09 8,8 C 74 % 1010,4 hPa 0,0 l/m 15,8 km/h (3 Bft) N-NW 331 0 min 0 W/m 4,4 C 3,3 C 22,5 km/h (4 Bft)
15.05.2016 03:12 8,8 C 75 % 1010,4 hPa 0,0 l/m 14,8 km/h (3 Bft) N-NW 346 0 min 0 W/m 4,6 C 3,8 C 22,5 km/h (4 Bft)
15.05.2016 03:15 8,8 C 74 % 1010,4 hPa 0,0 l/m 12,5 km/h (2 Bft) W-NW 302 0 min 0 W/m 4,4 C 4,9 C 27,4 km/h (5 Bft)
15.05.2016 03:18 8,8 C 76 % 1010,5 hPa 0,0 l/m 13,8 km/h (3 Bft) NW 320 0 min 0 W/m 4,8 C 4,2 C 25,7 km/h (4 Bft)
15.05.2016 03:21 8,8 C 76 % 1010,5 hPa 0,0 l/m 14,5 km/h (3 Bft) NW 325 0 min 0 W/m 4,8 C 3,9 C 22,5 km/h (4 Bft)
15.05.2016 03:24 8,8 C 75 % 1010,4 hPa 0,0 l/m 13,6 km/h (3 Bft) N-NW 348 0 min 0 W/m 4,6 C 4,3 C 22,5 km/h (4 Bft)
15.05.2016 03:27 8,8 C 73 % 1010,4 hPa 0,0 l/m 18,5 km/h (3 Bft) NW 312 0 min 0 W/m 4,2 C 2,3 C 27,4 km/h (5 Bft)
15.05.2016 03:30 8,8 C 73 % 1010,4 hPa 0,0 l/m 15,4 km/h (3 Bft) N-NW 348 0 min 0 W/m 4,2 C 3,5 C 25,7 km/h (4 Bft)
15.05.2016 03:33 8,8 C 73 % 1010,4 hPa 0,0 l/m 17,5 km/h (3 Bft) N 9 0 min 0 W/m 4,2 C 2,6 C 29,0 km/h (5 Bft)
15.05.2016 03:36 8,8 C 71 % 1010,4 hPa 0,0 l/m 16,5 km/h (3 Bft) N-NW 345 0 min 0 W/m 3,8 C 3,0 C 25,7 km/h (4 Bft)
15.05.2016 03:39 8,8 C 72 % 1010,4 hPa 0,0 l/m 15,6 km/h (3 Bft) NW 319 0 min 0 W/m 4,0 C 3,4 C 24,1 km/h (4 Bft)
15.05.2016 03:42 8,8 C 73 % 1010,4 hPa 0,0 l/m 17,7 km/h (3 Bft) NW 307 0 min 0 W/m 4,2 C 2,6 C 29,0 km/h (5 Bft)
15.05.2016 03:45 8,8 C 73 % 1010,3 hPa 0,0 l/m 12,0 km/h (2 Bft) NW 319 0 min 0 W/m 4,2 C 5,1 C 22,5 km/h (4 Bft)
15.05.2016 03:48 8,8 C 73 % 1010,3 hPa 0,0 l/m 16,5 km/h (3 Bft) N-NW 344 0 min 0 W/m 4,2 C 3,0 C 27,4 km/h (5 Bft)
15.05.2016 03:51 8,8 C 73 % 1010,4 hPa 0,0 l/m 15,4 km/h (3 Bft) NW 325 0 min 0 W/m 4,2 C 3,5 C 29,0 km/h (5 Bft)
15.05.2016 03:54 8,8 C 73 % 1010,4 hPa 0,0 l/m 17,1 km/h (3 Bft) W-NW 302 0 min 0 W/m 4,2 C 2,8 C 29,0 km/h (5 Bft)
15.05.2016 03:57 8,8 C 72 % 1010,3 hPa 0,0 l/m 16,3 km/h (3 Bft) NW 312 0 min 0 W/m 4,0 C 3,1 C 29,0 km/h (5 Bft)
15.05.2016 04:00 8,7 C 73 % 1010,2 hPa 0,0 l/m 12,5 km/h (2 Bft) NW 318 0 min 0 W/m 4,1 C 4,8 C 24,1 km/h (4 Bft)
15.05.2016 04:03 8,7 C 74 % 1010,2 hPa 0,0 l/m 15,1 km/h (3 Bft) N 10 0 min 0 W/m 4,3 C 3,5 C 25,7 km/h (4 Bft)
15.05.2016 04:06 8,6 C 73 % 1010,3 hPa 0,0 l/m 13,7 km/h (3 Bft) N-NW 332 0 min 0 W/m 4,0 C 4,0 C 25,7 km/h (4 Bft)
15.05.2016 04:09 8,6 C 73 % 1010,2 hPa 0,0 l/m 14,9 km/h (3 Bft) NW 314 0 min 0 W/m 4,0 C 3,5 C 24,1 km/h (4 Bft)
15.05.2016 04:12 8,6 C 73 % 1010,2 hPa 0,0 l/m 16,8 km/h (3 Bft) N-NW 327 0 min 0 W/m 4,0 C 2,7 C 25,7 km/h (4 Bft)
15.05.2016 04:15 8,6 C 74 % 1010,3 hPa 0,0 l/m 14,6 km/h (3 Bft) N-NW 330 0 min 0 W/m 4,2 C 3,6 C 22,5 km/h (4 Bft)
15.05.2016 04:18 8,6 C 75 % 1010,3 hPa 0,0 l/m 14,2 km/h (3 Bft) W-NW 300 0 min 0 W/m 4,4 C 3,8 C 25,7 km/h (4 Bft)
15.05.2016 04:21 8,6 C 75 % 1010,3 hPa 0,0 l/m 12,8 km/h (3 Bft) NW 309 0 min 0 W/m 4,4 C 4,5 C 30,6 km/h (5 Bft)
15.05.2016 04:24 8,6 C 75 % 1010,3 hPa 0,0 l/m 15,3 km/h (3 Bft) N 5 0 min 0 W/m 4,4 C 3,3 C 25,7 km/h (4 Bft)
15.05.2016 04:27 8,7 C 75 % 1010,3 hPa 0,0 l/m 13,7 km/h (3 Bft) NW 305 0 min 0 W/m 4,5 C 4,2 C 20,9 km/h (4 Bft)
15.05.2016 04:30 8,7 C 76 % 1010,4 hPa 0,0 l/m 17,2 km/h (3 Bft) N 355 0 min 0 W/m 4,7 C 2,6 C 29,0 km/h (5 Bft)
15.05.2016 04:33 8,7 C 74 % 1010,4 hPa 0,0 l/m 17,0 km/h (3 Bft) N-NW 331 0 min 0 W/m 4,3 C 2,7 C 25,7 km/h (4 Bft)
15.05.2016 04:36 8,7 C 74 % 1010,4 hPa 0,0 l/m 19,0 km/h (3 Bft) N 5 0 min 0 W/m 4,3 C 2,0 C 27,4 km/h (5 Bft)
15.05.2016 04:39 8,7 C 74 % 1010,4 hPa 0,0 l/m 19,8 km/h (3 Bft) N 351 0 min 0 W/m 4,3 C 1,7 C 37,0 km/h (5 Bft)
15.05.2016 04:42 8,7 C 73 % 1010,4 hPa 0,0 l/m 16,8 km/h (3 Bft) N-NW 328 0 min 0 W/m 4,1 C 2,8 C 30,6 km/h (5 Bft)
15.05.2016 04:45 8,7 C 72 % 1010,5 hPa 0,0 l/m 13,8 km/h (3 Bft) NW 322 0 min 0 W/m 3,9 C 4,1 C 24,1 km/h (4 Bft)
15.05.2016 04:48 8,7 C 72 % 1010,5 hPa 0,0 l/m 19,6 km/h (3 Bft) W-NW 302 0 min 0 W/m 3,9 C 1,7 C 32,2 km/h (5 Bft)
15.05.2016 04:51 8,7 C 72 % 1010,5 hPa 0,0 l/m 16,5 km/h (3 Bft) N 355 0 min 0 W/m 3,9 C 2,9 C 25,7 km/h (4 Bft)
15.05.2016 04:54 8,7 C 72 % 1010,4 hPa 0,0 l/m 17,8 km/h (3 Bft) N 11 0 min 0 W/m 3,9 C 2,4 C 27,4 km/h (5 Bft)
15.05.2016 04:57 8,7 C 72 % 1010,4 hPa 0,0 l/m 15,4 km/h (3 Bft) W-NW 299 0 min 0 W/m 3,9 C 3,4 C 25,7 km/h (4 Bft)
15.05.2016 05:00 8,7 C 72 % 1010,5 hPa 0,0 l/m 15,2 km/h (3 Bft) NW 324 0 min 0 W/m 3,9 C 3,5 C 29,0 km/h (5 Bft)
15.05.2016 05:03 8,7 C 71 % 1010,5 hPa 0,0 l/m 18,5 km/h (3 Bft) N-NW 332 0 min 0 W/m 3,7 C 2,1 C 32,2 km/h (5 Bft)
15.05.2016 05:06 8,7 C 70 % 1010,5 hPa 0,0 l/m 13,1 km/h (3 Bft) W-NW 296 0 min 0 W/m 3,5 C 4,5 C 20,9 km/h (4 Bft)
15.05.2016 05:09 8,7 C 72 % 1010,5 hPa 0,0 l/m 14,1 km/h (3 Bft) N-NW 330 0 min 0 W/m 3,9 C 4,0 C 25,7 km/h (4 Bft)
15.05.2016 05:12 8,7 C 72 % 1010,5 hPa 0,0 l/m 16,8 km/h (3 Bft) N-NW 333 0 min 0 W/m 3,9 C 2,8 C 27,4 km/h (5 Bft)
15.05.2016 05:15 8,7 C 71 % 1010,5 hPa 0,0 l/m 19,7 km/h (3 Bft) N-NW 345 0 min 0 W/m 3,7 C 1,7 C 29,0 km/h (5 Bft)
15.05.2016 05:18 8,7 C 72 % 1010,6 hPa 0,0 l/m 16,1 km/h (3 Bft) N-NW 334 0 min 0 W/m 3,9 C 3,1 C 25,7 km/h (4 Bft)
15.05.2016 05:21 8,7 C 71 % 1010,6 hPa 0,0 l/m 16,3 km/h (3 Bft) NW 321 0 min 0 W/m 3,7 C 3,0 C 27,4 km/h (5 Bft)
15.05.2016 05:24 8,7 C 70 % 1010,6 hPa 0,0 l/m 18,3 km/h (3 Bft) NW 323 0 min 0 W/m 3,5 C 2,2 C 33,8 km/h (5 Bft)
15.05.2016 05:27 8,7 C 72 % 1010,6 hPa 0,0 l/m 11,1 km/h (2 Bft) NW 321 0 min 0 W/m 3,9 C 5,5 C 24,1 km/h (4 Bft)
15.05.2016 05:30 8,7 C 70 % 1010,6 hPa 0,0 l/m 16,2 km/h (3 Bft) W-NW 292 0 min 0 W/m 3,5 C 3,0 C 25,7 km/h (4 Bft)
15.05.2016 05:33 8,8 C 71 % 1010,7 hPa 0,0 l/m 17,9 km/h (3 Bft) N 355 0 min 0 W/m 3,8 C 2,5 C 29,0 km/h (5 Bft)
15.05.2016 05:36 8,8 C 73 % 1010,7 hPa 0,0 l/m 18,3 km/h (3 Bft) N 355 0 min 5 W/m 4,2 C 2,3 C 30,6 km/h (5 Bft)
15.05.2016 05:39 8,8 C 72 % 1010,7 hPa 0,0 l/m 17,8 km/h (3 Bft) NW 312 0 min 9 W/m 4,0 C 2,5 C 35,4 km/h (5 Bft)
15.05.2016 05:42 8,7 C 70 % 1010,8 hPa 0,0 l/m 16,7 km/h (3 Bft) W-NW 284 0 min 7 W/m 3,5 C 2,8 C 30,6 km/h (5 Bft)
15.05.2016 05:45 8,6 C 71 % 1010,8 hPa 0,0 l/m 16,9 km/h (3 Bft) N 360 0 min 5 W/m 3,6 C 2,6 C 27,4 km/h (5 Bft)
15.05.2016 05:48 8,4 C 74 % 1010,8 hPa 0,0 l/m 16,2 km/h (3 Bft) W-NW 301 0 min 0 W/m 4,0 C 2,7 C 32,2 km/h (5 Bft)
15.05.2016 05:51 8,3 C 76 % 1010,8 hPa 0,2 l/m 13,3 km/h (3 Bft) SW 223 0 min 0 W/m 4,3 C 3,9 C 30,6 km/h (5 Bft)
15.05.2016 05:54 8,2 C 78 % 1010,8 hPa 0,0 l/m 14,7 km/h (3 Bft) W 271 0 min 7 W/m 4,6 C 3,1 C 32,2 km/h (5 Bft)
15.05.2016 05:57 8,3 C 78 % 1010,8 hPa 0,0 l/m 18,0 km/h (3 Bft) NW 306 0 min 9 W/m 4,7 C 1,8 C 40,2 km/h (6 Bft)
15.05.2016 06:00 8,3 C 77 % 1010,8 hPa 0,0 l/m 21,2 km/h (4 Bft) N 9 0 min 7 W/m 4,5 C 0,7 C 33,8 km/h (5 Bft)
15.05.2016 06:03 8,3 C 77 % 1010,8 hPa 0,0 l/m 18,7 km/h (3 Bft) W 269 0 min 7 W/m 4,5 C 1,6 C 33,8 km/h (5 Bft)
15.05.2016 06:06 8,2 C 75 % 1010,9 hPa 0,0 l/m 18,3 km/h (3 Bft) N-NO 15 0 min 9 W/m 4,0 C 1,6 C 35,4 km/h (5 Bft)
15.05.2016 06:09 8,2 C 76 % 1010,9 hPa 0,0 l/m 13,3 km/h (3 Bft) NW 309 0 min 14 W/m 4,2 C 3,8 C 27,4 km/h (5 Bft)
15.05.2016 06:12 8,1 C 74 % 1010,8 hPa 0,0 l/m 18,0 km/h (3 Bft) W-NW 302 0 min 21 W/m 3,8 C 1,6 C 38,6 km/h (6 Bft)
15.05.2016 06:15 7,9 C 73 % 1010,9 hPa 0,0 l/m 19,7 km/h (3 Bft) N 355 0 min 21 W/m 3,4 C 0,7 C 30,6 km/h (5 Bft)
15.05.2016 06:18 7,9 C 74 % 1010,9 hPa 0,0 l/m 10,1 km/h (2 Bft) W 279 0 min 12 W/m 3,6 C 5,2 C 20,9 km/h (4 Bft)
15.05.2016 06:21 7,9 C 75 % 1010,8 hPa 0,0 l/m 8,9 km/h (2 Bft) N-NW 335 0 min 11 W/m 3,7 C 6,0 C 14,5 km/h (3 Bft)
15.05.2016 06:24 7,9 C 77 % 1010,8 hPa 0,0 l/m 11,8 km/h (2 Bft) W-NW 290 0 min 14 W/m 4,1 C 4,2 C 22,5 km/h (4 Bft)
15.05.2016 06:27 8,1 C 77 % 1010,7 hPa 0,0 l/m 8,4 km/h (2 Bft) W-NW 299 0 min 18 W/m 4,3 C 6,6 C 16,1 km/h (3 Bft)
15.05.2016 06:30 8,1 C 78 % 1010,7 hPa 0,0 l/m 9,1 km/h (2 Bft) N-NW 330 0 min 26 W/m 4,5 C 6,1 C 24,1 km/h (4 Bft)
15.05.2016 06:33 8,3 C 79 % 1010,8 hPa 0,0 l/m 14,2 km/h (3 Bft) N-NW 331 0 min 16 W/m 4,9 C 3,4 C 29,0 km/h (5 Bft)
15.05.2016 06:36 8,4 C 77 % 1010,7 hPa 0,0 l/m 13,8 km/h (3 Bft) W 265 0 min 12 W/m 4,6 C 3,8 C 27,4 km/h (5 Bft)
15.05.2016 06:39 8,6 C 75 % 1010,7 hPa 0,0 l/m 14,3 km/h (3 Bft) W-NW 289 0 min 12 W/m 4,4 C 3,8 C 29,0 km/h (5 Bft)
15.05.2016 06:42 8,6 C 77 % 1010,7 hPa 0,0 l/m 20,7 km/h (4 Bft) W-NW 299 0 min 14 W/m 4,8 C 1,2 C 32,2 km/h (5 Bft)
15.05.2016 06:45 8,6 C 77 % 1010,7 hPa 0,0 l/m 11,9 km/h (2 Bft) NW 324 0 min 14 W/m 4,8 C 5,0 C 25,7 km/h (4 Bft)
15.05.2016 06:48 8,6 C 76 % 1010,7 hPa 0,0 l/m 14,9 km/h (3 Bft) W-NW 303 0 min 12 W/m 4,6 C 3,5 C 27,4 km/h (5 Bft)
15.05.2016 06:51 8,6 C 75 % 1010,7 hPa 0,0 l/m 15,9 km/h (3 Bft) W-NW 293 0 min 14 W/m 4,4 C 3,0 C 29,0 km/h (5 Bft)
15.05.2016 06:54 8,6 C 75 % 1010,7 hPa 0,0 l/m 13,0 km/h (3 Bft) W-NW 297 0 min 14 W/m 4,4 C 4,4 C 25,7 km/h (4 Bft)
15.05.2016 06:57 8,6 C 74 % 1010,7 hPa 0,0 l/m 14,8 km/h (3 Bft) W-NW 284 0 min 16 W/m 4,2 C 3,5 C 24,1 km/h (4 Bft)
15.05.2016 07:00 8,6 C 74 % 1010,7 hPa 0,0 l/m 12,7 km/h (3 Bft) W 270 0 min 16 W/m 4,2 C 4,5 C 25,7 km/h (4 Bft)
15.05.2016 07:03 8,6 C 73 % 1010,7 hPa 0,0 l/m 15,4 km/h (3 Bft) NW 312 0 min 21 W/m 4,0 C 3,3 C 32,2 km/h (5 Bft)
15.05.2016 07:06 8,7 C 74 % 1010,7 hPa 0,0 l/m 15,1 km/h (3 Bft) W 275 0 min 18 W/m 4,3 C 3,5 C 30,6 km/h (5 Bft)
15.05.2016 07:09 8,7 C 74 % 1010,8 hPa 0,0 l/m 14,3 km/h (3 Bft) W-NW 299 0 min 14 W/m 4,3 C 3,9 C 25,7 km/h (4 Bft)
15.05.2016 07:12 8,7 C 74 % 1010,7 hPa 0,0 l/m 14,1 km/h (3 Bft) NW 323 0 min 14 W/m 4,3 C 4,0 C 25,7 km/h (4 Bft)
15.05.2016 07:15 8,7 C 76 % 1010,7 hPa 0,0 l/m 11,6 km/h (2 Bft) N 360 0 min 18 W/m 4,7 C 5,2 C 25,7 km/h (4 Bft)
15.05.2016 07:18 8,7 C 76 % 1010,7 hPa 0,0 l/m 14,0 km/h (3 Bft) SW 223 0 min 21 W/m 4,7 C 4,0 C 29,0 km/h (5 Bft)
15.05.2016 07:21 8,8 C 76 % 1010,7 hPa 0,0 l/m 15,3 km/h (3 Bft) W-NW 283 0 min 21 W/m 4,8 C 3,5 C 25,7 km/h (4 Bft)
15.05.2016 07:24 8,8 C 75 % 1010,8 hPa 0,0 l/m 16,9 km/h (3 Bft) W 272 0 min 21 W/m 4,6 C 2,9 C 30,6 km/h (5 Bft)
15.05.2016 07:27 8,8 C 75 % 1010,7 hPa 0,0 l/m 18,3 km/h (3 Bft) N-NW 340 0 min 19 W/m 4,6 C 2,3 C 29,0 km/h (5 Bft)
15.05.2016 07:30 8,8 C 76 % 1010,8 hPa 0,0 l/m 16,0 km/h (3 Bft) N-NW 344 0 min 21 W/m 4,8 C 3,3 C 29,0 km/h (5 Bft)
15.05.2016 07:33 8,8 C 76 % 1010,8 hPa 0,0 l/m 13,8 km/h (3 Bft) NW 325 0 min 26 W/m 4,8 C 4,2 C 20,9 km/h (4 Bft)
15.05.2016 07:36 8,7 C 76 % 1010,9 hPa 0,0 l/m 17,0 km/h (3 Bft) N-NW 346 0 min 37 W/m 4,7 C 2,7 C 30,6 km/h (5 Bft)
15.05.2016 07:39 8,7 C 76 % 1010,9 hPa 0,0 l/m 18,9 km/h (3 Bft) NW 309 0 min 33 W/m 4,7 C 2,0 C 32,2 km/h (5 Bft)
15.05.2016 07:42 8,8 C 78 % 1010,9 hPa 0,0 l/m 17,0 km/h (3 Bft) NW 320 0 min 39 W/m 5,2 C 2,8 C 29,0 km/h (5 Bft)
15.05.2016 07:45 8,8 C 77 % 1011,0 hPa 0,0 l/m 18,1 km/h (3 Bft) NW 312 0 min 25 W/m 5,0 C 2,4 C 32,2 km/h (5 Bft)
15.05.2016 07:48 8,8 C 76 % 1011,1 hPa 0,0 l/m 16,9 km/h (3 Bft) N-NW 333 0 min 25 W/m 4,8 C 2,9 C 38,6 km/h (6 Bft)
15.05.2016 07:51 8,8 C 74 % 1011,1 hPa 0,0 l/m 13,2 km/h (3 Bft) NW 310 0 min 25 W/m 4,4 C 4,5 C 25,7 km/h (4 Bft)
15.05.2016 07:54 8,8 C 75 % 1011,1 hPa 0,0 l/m 18,4 km/h (3 Bft) NW 319 0 min 32 W/m 4,6 C 2,3 C 27,4 km/h (5 Bft)
15.05.2016 07:57 8,9 C 77 % 1011,1 hPa 0,0 l/m 20,9 km/h (4 Bft) W 281 0 min 62 W/m 5,1 C 1,6 C 37,0 km/h (5 Bft)
15.05.2016 08:00 8,8 C 75 % 1011,2 hPa 0,0 l/m 18,9 km/h (3 Bft) N-NW 338 0 min 111 W/m 4,6 C 2,1 C 32,2 km/h (5 Bft)
15.05.2016 08:03 8,8 C 76 % 1011,2 hPa 0,0 l/m 14,1 km/h (3 Bft) N-NW 330 3 min 200 W/m 4,8 C 4,1 C 22,5 km/h (4 Bft)
15.05.2016 08:06 9,0 C 78 % 1011,2 hPa 0,0 l/m 12,5 km/h (2 Bft) NW 325 0 min 174 W/m 5,4 C 5,1 C 24,1 km/h (4 Bft)
15.05.2016 08:09 9,2 C 78 % 1011,2 hPa 0,0 l/m 11,9 km/h (2 Bft) NW 306 0 min 86 W/m 5,6 C 5,6 C 24,1 km/h (4 Bft)
15.05.2016 08:12 9,2 C 79 % 1011,3 hPa 0,0 l/m 14,7 km/h (3 Bft) W-SW 247 0 min 47 W/m 5,8 C 4,3 C 24,1 km/h (4 Bft)
15.05.2016 08:15 9,1 C 79 % 1011,3 hPa 0,0 l/m 13,3 km/h (3 Bft) N 355 0 min 44 W/m 5,7 C 4,8 C 24,1 km/h (4 Bft)
15.05.2016 08:18 9,2 C 78 % 1011,2 hPa 0,0 l/m 14,2 km/h (3 Bft) W-NW 292 0 min 35 W/m 5,6 C 4,5 C 24,1 km/h (4 Bft)
15.05.2016 08:21 9,2 C 78 % 1011,2 hPa 0,0 l/m 12,7 km/h (3 Bft) NW 315 0 min 32 W/m 5,6 C 5,2 C 25,7 km/h (4 Bft)
15.05.2016 08:24 9,2 C 76 % 1011,3 hPa 0,0 l/m 14,5 km/h (3 Bft) W 262 0 min 30 W/m 5,2 C 4,4 C 30,6 km/h (5 Bft)
15.05.2016 08:27 9,3 C 74 % 1011,2 hPa 0,0 l/m 14,9 km/h (3 Bft) W 269 0 min 28 W/m 4,9 C 4,3 C 29,0 km/h (5 Bft)
15.05.2016 08:30 9,3 C 74 % 1011,2 hPa 0,0 l/m 17,5 km/h (3 Bft) NW 315 0 min 28 W/m 4,9 C 3,3 C 27,4 km/h (5 Bft)
15.05.2016 08:33 9,4 C 72 % 1011,2 hPa 0,0 l/m 14,5 km/h (3 Bft) W-NW 298 0 min 30 W/m 4,6 C 4,6 C 30,6 km/h (5 Bft)
15.05.2016 08:36 9,4 C 72 % 1011,3 hPa 0,0 l/m 14,9 km/h (3 Bft) W-SW 241 0 min 28 W/m 4,6 C 4,5 C 29,0 km/h (5 Bft)
15.05.2016 08:39 9,6 C 73 % 1011,2 hPa 0,0 l/m 11,3 km/h (2 Bft) W-NW 293 0 min 32 W/m 5,0 C 6,4 C 24,1 km/h (4 Bft)
15.05.2016 08:42 9,7 C 72 % 1011,3 hPa 0,0 l/m 13,4 km/h (3 Bft) W 275 0 min 37 W/m 4,9 C 5,5 C 24,1 km/h (4 Bft)
15.05.2016 08:45 9,8 C 73 % 1011,3 hPa 0,0 l/m 10,7 km/h (2 Bft) NW 305 0 min 35 W/m 5,2 C 7,0 C 22,5 km/h (4 Bft)
15.05.2016 08:48 9,8 C 73 % 1011,4 hPa 0,0 l/m 14,7 km/h (3 Bft) N-NW 329 0 min 37 W/m 5,2 C 5,0 C 30,6 km/h (5 Bft)
15.05.2016 08:51 9,9 C 73 % 1011,3 hPa 0,0 l/m 13,3 km/h (3 Bft) NW 323 0 min 86 W/m 5,3 C 5,8 C 25,7 km/h (4 Bft)
15.05.2016 08:54 10,2 C 75 % 1011,3 hPa 0,0 l/m 10,6 km/h (2 Bft) W-SW 251 0 min 107 W/m 6,0 C 7,5 C 22,5 km/h (4 Bft)
15.05.2016 08:57 10,2 C 73 % 1011,3 hPa 0,0 l/m 18,3 km/h (3 Bft) W-NW 292 0 min 109 W/m 5,6 C 4,1 C 32,2 km/h (5 Bft)
15.05.2016 09:00 10,1 C 72 % 1011,3 hPa 0,0 l/m 15,4 km/h (3 Bft) N 9 0 min 53 W/m 5,3 C 5,1 C 27,4 km/h (5 Bft)
15.05.2016 09:03 10,0 C 73 % 1011,3 hPa 0,0 l/m 9,3 km/h (2 Bft) NW 321 0 min 44 W/m 5,4 C 8,0 C 19,3 km/h (3 Bft)
15.05.2016 09:06 10,2 C 73 % 1011,3 hPa 0,0 l/m 14,7 km/h (3 Bft) W 265 0 min 40 W/m 5,6 C 5,5 C 27,4 km/h (5 Bft)
15.05.2016 09:09 10,3 C 72 % 1011,4 hPa 0,0 l/m 12,6 km/h (3 Bft) W-NW 288 0 min 37 W/m 5,5 C 6,6 C 32,2 km/h (5 Bft)
15.05.2016 09:12 10,3 C 71 % 1011,5 hPa 0,0 l/m 16,2 km/h (3 Bft) W 279 0 min 37 W/m 5,3 C 5,0 C 29,0 km/h (5 Bft)
15.05.2016 09:15 10,2 C 71 % 1011,5 hPa 0,0 l/m 15,4 km/h (3 Bft) W 269 0 min 44 W/m 5,2 C 5,2 C 29,0 km/h (5 Bft)
15.05.2016 09:18 10,4 C 73 % 1011,4 hPa 0,0 l/m 12,2 km/h (2 Bft) N-NW 337 0 min 116 W/m 5,8 C 6,9 C 24,1 km/h (4 Bft)
15.05.2016 09:21 10,6 C 74 % 1011,5 hPa 0,0 l/m 14,0 km/h (3 Bft) W-SW 250 0 min 146 W/m 6,2 C 6,3 C 27,4 km/h (5 Bft)
15.05.2016 09:24 10,6 C 74 % 1011,5 hPa 0,0 l/m 13,4 km/h (3 Bft) W 281 0 min 141 W/m 6,2 C 6,5 C 27,4 km/h (5 Bft)
15.05.2016 09:27 10,4 C 76 % 1011,6 hPa 0,0 l/m 12,4 km/h (2 Bft) N 360 0 min 125 W/m 6,4 C 6,8 C 25,7 km/h (4 Bft)
15.05.2016 09:30 10,2 C 76 % 1011,5 hPa 0,0 l/m 13,2 km/h (3 Bft) W-SW 252 0 min 144 W/m 6,2 C 6,2 C 27,4 km/h (5 Bft)
15.05.2016 09:33 10,1 C 76 % 1011,5 hPa 0,0 l/m 11,8 km/h (2 Bft) W 266 0 min 141 W/m 6,1 C 6,7 C 27,4 km/h (5 Bft)
15.05.2016 09:36 10,3 C 75 % 1011,6 hPa 0,0 l/m 15,1 km/h (3 Bft) W-SW 257 0 min 139 W/m 6,1 C 5,5 C 27,4 km/h (5 Bft)
15.05.2016 09:39 10,6 C 74 % 1011,7 hPa 0,0 l/m 16,9 km/h (3 Bft) NW 311 0 min 88 W/m 6,2 C 5,1 C 29,0 km/h (5 Bft)
15.05.2016 09:42 10,6 C 73 % 1011,7 hPa 0,0 l/m 10,9 km/h (2 Bft) W-SW 248 0 min 153 W/m 6,0 C 7,8 C 22,5 km/h (4 Bft)
15.05.2016 09:45 10,7 C 73 % 1011,7 hPa 0,0 l/m 13,2 km/h (3 Bft) W-NW 300 0 min 174 W/m 6,1 C 6,8 C 24,1 km/h (4 Bft)
15.05.2016 09:48 10,8 C 73 % 1011,8 hPa 0,0 l/m 14,5 km/h (3 Bft) N 5 0 min 158 W/m 6,2 C 6,3 C 29,0 km/h (5 Bft)
15.05.2016 09:51 10,8 C 72 % 1011,8 hPa 0,0 l/m 12,6 km/h (3 Bft) W-NW 283 0 min 104 W/m 6,0 C 7,1 C 25,7 km/h (4 Bft)
15.05.2016 09:54 10,7 C 73 % 1011,7 hPa 0,0 l/m 8,3 km/h (2 Bft) SW 214 0 min 172 W/m 6,1 C 9,4 C 22,5 km/h (4 Bft)
15.05.2016 09:57 10,9 C 75 % 1011,8 hPa 0,0 l/m 14,1 km/h (3 Bft) W-NW 302 0 min 111 W/m 6,6 C 6,6 C 37,0 km/h (5 Bft)
15.05.2016 10:00 10,8 C 74 % 1011,8 hPa 0,0 l/m 16,0 km/h (3 Bft) N-NW 346 0 min 83 W/m 6,4 C 5,7 C 30,6 km/h (5 Bft)
15.05.2016 10:03 10,6 C 73 % 1011,8 hPa 0,0 l/m 13,4 km/h (3 Bft) N-NW 340 0 min 76 W/m 6,0 C 6,5 C 32,2 km/h (5 Bft)
15.05.2016 10:06 10,5 C 73 % 1011,7 hPa 0,0 l/m 8,8 km/h (2 Bft) W-NW 289 0 min 93 W/m 5,9 C 8,9 C 24,1 km/h (4 Bft)
15.05.2016 10:09 10,4 C 73 % 1011,7 hPa 0,0 l/m 12,1 km/h (2 Bft) W-NW 286 0 min 123 W/m 5,8 C 6,9 C 25,7 km/h (4 Bft)
15.05.2016 10:12 10,4 C 74 % 1011,8 hPa 0,0 l/m 13,3 km/h (3 Bft) W-NW 287 0 min 160 W/m 6,0 C 6,4 C 30,6 km/h (5 Bft)
15.05.2016 10:15 10,4 C 75 % 1011,8 hPa 0,0 l/m 13,4 km/h (3 Bft) W-NW 292 0 min 137 W/m 6,2 C 6,3 C 24,1 km/h (4 Bft)
15.05.2016 10:18 10,5 C 70 % 1011,8 hPa 0,0 l/m 14,1 km/h (3 Bft) W-SW 243 0 min 102 W/m 5,3 C 6,1 C 25,7 km/h (4 Bft)
15.05.2016 10:21 10,5 C 68 % 1011,8 hPa 0,0 l/m 15,7 km/h (3 Bft) N-NW 331 0 min 102 W/m 4,8 C 5,5 C 29,0 km/h (5 Bft)
15.05.2016 10:24 10,5 C 69 % 1011,8 hPa 0,0 l/m 20,3 km/h (4 Bft) N 355 0 min 149 W/m 5,1 C 3,8 C 32,2 km/h (5 Bft)
15.05.2016 10:27 10,6 C 69 % 1011,8 hPa 0,0 l/m 17,0 km/h (3 Bft) NW 318 0 min 174 W/m 5,2 C 5,1 C 27,4 km/h (5 Bft)
15.05.2016 10:30 10,7 C 70 % 1011,9 hPa 0,0 l/m 18,0 km/h (3 Bft) N-NW 331 0 min 209 W/m 5,5 C 4,9 C 27,4 km/h (5 Bft)
15.05.2016 10:33 11,0 C 69 % 1011,9 hPa 0,0 l/m 15,0 km/h (3 Bft) W 280 0 min 149 W/m 5,5 C 6,3 C 22,5 km/h (4 Bft)
15.05.2016 10:36 11,1 C 67 % 1012,0 hPa 0,0 l/m 16,3 km/h (3 Bft) N-NW 343 0 min 169 W/m 5,2 C 6,0 C 37,0 km/h (5 Bft)
15.05.2016 10:39 11,1 C 68 % 1011,9 hPa 0,0 l/m 15,9 km/h (3 Bft) N-NW 327 0 min 165 W/m 5,4 C 6,1 C 30,6 km/h (5 Bft)
15.05.2016 10:42 11,0 C 68 % 1011,9 hPa 0,0 l/m 17,9 km/h (3 Bft) W-NW 302 0 min 141 W/m 5,3 C 5,3 C 35,4 km/h (5 Bft)
15.05.2016 10:45 10,9 C 68 % 1011,9 hPa 0,0 l/m 18,7 km/h (3 Bft) W-NW 294 0 min 202 W/m 5,2 C 4,9 C 32,2 km/h (5 Bft)
15.05.2016 10:48 10,9 C 70 % 1012,0 hPa 0,0 l/m 14,2 km/h (3 Bft) N-NO 31 0 min 149 W/m 5,6 C 6,6 C 32,2 km/h (5 Bft)
15.05.2016 10:51 11,2 C 71 % 1011,9 hPa 0,0 l/m 13,3 km/h (3 Bft) NW 309 0 min 141 W/m 6,1 C 7,3 C 22,5 km/h (4 Bft)
15.05.2016 10:54 11,4 C 70 % 1012,0 hPa 0,0 l/m 17,2 km/h (3 Bft) N-NW 345 3 min 751 W/m 6,1 C 6,0 C 35,4 km/h (5 Bft)
15.05.2016 10:57 11,8 C 67 % 1011,9 hPa 0,0 l/m 19,4 km/h (3 Bft) N-NO 12 3 min 756 W/m 5,9 C 5,8 C 33,8 km/h (5 Bft)
15.05.2016 11:00 12,1 C 66 % 1012,0 hPa 0,0 l/m 18,6 km/h (3 Bft) W-NW 303 3 min 756 W/m 5,9 C 6,4 C 33,8 km/h (5 Bft)
15.05.2016 11:03 12,4 C 66 % 1012,0 hPa 0,0 l/m 16,4 km/h (3 Bft) W-NW 295 3 min 861 W/m 6,2 C 7,5 C 25,7 km/h (4 Bft)
15.05.2016 11:06 12,7 C 66 % 1012,0 hPa 0,0 l/m 14,9 km/h (3 Bft) N-NW 328 3 min 861 W/m 6,5 C 8,4 C 29,0 km/h (5 Bft)
15.05.2016 11:09 12,8 C 64 % 1012,0 hPa 0,0 l/m 18,3 km/h (3 Bft) N-NW 338 0 min 362 W/m 6,2 C 7,4 C 37,0 km/h (5 Bft)
15.05.2016 11:12 12,8 C 64 % 1012,0 hPa 0,0 l/m 17,1 km/h (3 Bft) N-NW 337 0 min 362 W/m 6,2 C 7,8 C 32,2 km/h (5 Bft)
15.05.2016 11:15 12,5 C 65 % 1012,1 hPa 0,0 l/m 13,5 km/h (3 Bft) NW 311 0 min 102 W/m 6,1 C 8,8 C 25,7 km/h (4 Bft)
15.05.2016 11:18 12,1 C 66 % 1012,1 hPa 0,0 l/m 17,0 km/h (3 Bft) NW 320 0 min 246 W/m 5,9 C 7,0 C 32,2 km/h (5 Bft)
15.05.2016 11:21 11,9 C 68 % 1012,1 hPa 0,0 l/m 14,9 km/h (3 Bft) W-NW 296 0 min 246 W/m 6,2 C 7,5 C 29,0 km/h (5 Bft)
15.05.2016 11:24 11,9 C 65 % 1012,2 hPa 0,0 l/m 21,2 km/h (4 Bft) NW 311 0 min 195 W/m 5,5 C 5,4 C 35,4 km/h (5 Bft)
15.05.2016 11:27 11,9 C 65 % 1012,2 hPa 0,0 l/m 16,9 km/h (3 Bft) W-NW 300 0 min 267 W/m 5,5 C 6,7 C 27,4 km/h (5 Bft)
15.05.2016 11:30 12,5 C 64 % 1012,2 hPa 0,0 l/m 16,0 km/h (3 Bft) NW 311 3 min 800 W/m 5,9 C 7,8 C 27,4 km/h (5 Bft)
15.05.2016 11:33 12,8 C 63 % 1012,2 hPa 0,0 l/m 17,8 km/h (3 Bft) NW 304 3 min 719 W/m 5,9 C 7,6 C 30,6 km/h (5 Bft)
15.05.2016 11:36 13,4 C 63 % 1012,2 hPa 0,0 l/m 11,4 km/h (2 Bft) NW 317 3 min 740 W/m 6,5 C 10,7 C 29,0 km/h (5 Bft)
15.05.2016 11:39 13,6 C 61 % 1012,2 hPa 0,0 l/m 12,4 km/h (2 Bft) W 262 3 min 680 W/m 6,2 C 10,5 C 24,1 km/h (4 Bft)
15.05.2016 11:42 13,4 C 60 % 1012,2 hPa 0,0 l/m 15,1 km/h (3 Bft) N-NW 340 3 min 626 W/m 5,8 C 9,2 C 25,7 km/h (4 Bft)
15.05.2016 11:45 13,7 C 59 % 1012,3 hPa 0,0 l/m 15,1 km/h (3 Bft) NW 321 3 min 606 W/m 5,8 C 9,6 C 25,7 km/h (4 Bft)
15.05.2016 11:48 14,0 C 58 % 1012,3 hPa 0,0 l/m 13,1 km/h (3 Bft) W 272 3 min 691 W/m 5,9 C 10,7 C 27,4 km/h (5 Bft)
15.05.2016 11:51 14,1 C 59 % 1012,3 hPa 0,0 l/m 16,0 km/h (3 Bft) NW 308 0 min 195 W/m 6,2 C 9,8 C 30,6 km/h (5 Bft)
15.05.2016 11:54 13,7 C 61 % 1012,4 hPa 0,0 l/m 18,7 km/h (3 Bft) NW 308 3 min 754 W/m 6,3 C 8,4 C 29,0 km/h (5 Bft)
15.05.2016 11:57 13,4 C 61 % 1012,4 hPa 0,0 l/m 16,7 km/h (3 Bft) N-NW 335 0 min 186 W/m 6,0 C 8,7 C 32,2 km/h (5 Bft)
15.05.2016 12:00 13,1 C 63 % 1012,4 hPa 0,0 l/m 15,9 km/h (3 Bft) NW 310 0 min 214 W/m 6,2 C 8,6 C 29,0 km/h (5 Bft)
15.05.2016 12:03 12,7 C 64 % 1012,3 hPa 0,0 l/m 14,7 km/h (3 Bft) NW 307 0 min 207 W/m 6,1 C 8,5 C 33,8 km/h (5 Bft)
15.05.2016 12:06 12,4 C 65 % 1012,3 hPa 0,0 l/m 17,7 km/h (3 Bft) NW 319 0 min 214 W/m 6,0 C 7,1 C 32,2 km/h (5 Bft)
15.05.2016 12:09 12,3 C 65 % 1012,3 hPa 0,0 l/m 15,2 km/h (3 Bft) NW 316 0 min 137 W/m 5,9 C 7,8 C 25,7 km/h (4 Bft)
15.05.2016 12:12 12,2 C 66 % 1012,4 hPa 0,0 l/m 13,1 km/h (3 Bft) SW 229 3 min 846 W/m 6,0 C 8,6 C 24,1 km/h (4 Bft)
15.05.2016 12:15 12,9 C 65 % 1012,3 hPa 0,0 l/m 15,7 km/h (3 Bft) W-NW 296 3 min 932 W/m 6,5 C 8,4 C 30,6 km/h (5 Bft)
15.05.2016 12:18 12,8 C 63 % 1012,3 hPa 0,0 l/m 17,6 km/h (3 Bft) N 5 0 min 188 W/m 5,9 C 7,6 C 25,7 km/h (4 Bft)
15.05.2016 12:21 12,6 C 66 % 1012,4 hPa 0,0 l/m 21,1 km/h (4 Bft) W-NW 298 0 min 183 W/m 6,4 C 6,3 C 33,8 km/h (5 Bft)
15.05.2016 12:24 12,9 C 64 % 1012,4 hPa 0,0 l/m 20,7 km/h (4 Bft) W-NW 299 0 min 374 W/m 6,3 C 6,8 C 33,8 km/h (5 Bft)
15.05.2016 12:27 13,3 C 62 % 1012,5 hPa 0,0 l/m 19,9 km/h (4 Bft) N-NW 327 3 min 967 W/m 6,2 C 7,6 C 40,2 km/h (6 Bft)
15.05.2016 12:30 13,2 C 62 % 1012,4 hPa 0,0 l/m 18,1 km/h (3 Bft) NW 313 0 min 134 W/m 6,1 C 8,0 C 32,2 km/h (5 Bft)
15.05.2016 12:33 12,7 C 63 % 1012,5 hPa 0,0 l/m 16,8 km/h (3 Bft) N-NW 338 0 min 255 W/m 5,8 C 7,8 C 30,6 km/h (5 Bft)
15.05.2016 12:36 12,6 C 63 % 1012,5 hPa 0,0 l/m 21,6 km/h (4 Bft) N-NW 329 0 min 262 W/m 5,7 C 6,2 C 33,8 km/h (5 Bft)
15.05.2016 12:39 12,6 C 63 % 1012,5 hPa 0,0 l/m 14,2 km/h (3 Bft) NW 313 0 min 262 W/m 5,7 C 8,6 C 33,8 km/h (5 Bft)
15.05.2016 12:42 12,8 C 63 % 1012,6 hPa 0,0 l/m 21,5 km/h (4 Bft) W-NW 302 0 min 262 W/m 5,9 C 6,5 C 37,0 km/h (5 Bft)
15.05.2016 12:45 12,8 C 62 % 1012,6 hPa 0,0 l/m 16,7 km/h (3 Bft) N 9 3 min 889 W/m 5,7 C 7,9 C 32,2 km/h (5 Bft)
15.05.2016 12:48 13,4 C 62 % 1012,6 hPa 0,0 l/m 16,0 km/h (3 Bft) NW 319 3 min 882 W/m 6,3 C 8,9 C 32,2 km/h (5 Bft)
15.05.2016 12:51 14,2 C 60 % 1012,6 hPa 0,0 l/m 15,2 km/h (3 Bft) N-NW 329 3 min 840 W/m 6,5 C 10,2 C 24,1 km/h (4 Bft)
15.05.2016 12:54 14,5 C 58 % 1012,7 hPa 0,0 l/m 17,8 km/h (3 Bft) N 11 3 min 911 W/m 6,3 C 9,7 C 30,6 km/h (5 Bft)
15.05.2016 12:57 14,4 C 57 % 1012,7 hPa 0,0 l/m 16,6 km/h (3 Bft) W-NW 299 3 min 911 W/m 6,0 C 9,9 C 30,6 km/h (5 Bft)
15.05.2016 13:00 13,8 C 57 % 1012,7 hPa 0,0 l/m 19,4 km/h (3 Bft) W-NW 293 0 min 211 W/m 5,4 C 8,4 C 32,2 km/h (5 Bft)
15.05.2016 13:03 13,5 C 60 % 1012,7 hPa 0,0 l/m 18,4 km/h (3 Bft) NW 306 0 min 306 W/m 5,9 C 8,3 C 30,6 km/h (5 Bft)
15.05.2016 13:06 13,4 C 61 % 1012,8 hPa 0,0 l/m 15,6 km/h (3 Bft) W-NW 286 0 min 160 W/m 6,0 C 9,0 C 27,4 km/h (5 Bft)
15.05.2016 13:09 13,6 C 61 % 1012,7 hPa 0,0 l/m 13,0 km/h (3 Bft) W-NW 300 0 min 160 W/m 6,2 C 10,2 C 29,0 km/h (5 Bft)
15.05.2016 13:12 13,4 C 61 % 1012,8 hPa 0,0 l/m 14,2 km/h (3 Bft) N-NW 333 0 min 213 W/m 6,0 C 9,5 C 29,0 km/h (5 Bft)
15.05.2016 13:15 13,4 C 61 % 1012,8 hPa 0,0 l/m 16,5 km/h (3 Bft) W-NW 302 3 min 613 W/m 6,0 C 8,7 C 32,2 km/h (5 Bft)
15.05.2016 13:18 13,3 C 62 % 1012,8 hPa 0,0 l/m 16,2 km/h (3 Bft) W-NW 302 0 min 288 W/m 6,2 C 8,7 C 29,0 km/h (5 Bft)
15.05.2016 13:21 13,2 C 62 % 1012,8 hPa 0,0 l/m 14,5 km/h (3 Bft) N-NW 338 0 min 257 W/m 6,1 C 9,2 C 29,0 km/h (5 Bft)
15.05.2016 13:24 13,0 C 62 % 1012,8 hPa 0,0 l/m 19,7 km/h (3 Bft) NW 326 0 min 213 W/m 5,9 C 7,2 C 35,4 km/h (5 Bft)
15.05.2016 13:27 13,1 C 63 % 1012,8 hPa 0,0 l/m 15,0 km/h (3 Bft) NW 311 0 min 246 W/m 6,2 C 8,9 C 29,0 km/h (5 Bft)
15.05.2016 13:30 12,8 C 62 % 1012,8 hPa 0,0 l/m 19,9 km/h (4 Bft) W-NW 286 0 min 229 W/m 5,7 C 6,9 C 30,6 km/h (5 Bft)
15.05.2016 13:33 12,9 C 64 % 1012,8 hPa 0,0 l/m 15,5 km/h (3 Bft) W 271 0 min 302 W/m 6,3 C 8,5 C 29,0 km/h (5 Bft)
15.05.2016 13:36 13,0 C 64 % 1012,9 hPa 0,0 l/m 13,3 km/h (3 Bft) W-NW 292 0 min 269 W/m 6,4 C 9,4 C 29,0 km/h (5 Bft)
15.05.2016 13:39 12,8 C 64 % 1012,9 hPa 0,0 l/m 21,3 km/h (4 Bft) N-NW 327 0 min 250 W/m 6,2 C 6,5 C 33,8 km/h (5 Bft)
15.05.2016 13:42 13,1 C 65 % 1013,0 hPa 0,0 l/m 15,7 km/h (3 Bft) W-NW 292 3 min 1016 W/m 6,7 C 8,6 C 38,6 km/h (6 Bft)
15.05.2016 13:45 13,6 C 62 % 1012,9 hPa 0,0 l/m 14,8 km/h (3 Bft) W-NW 292 0 min 239 W/m 6,5 C 9,6 C 29,0 km/h (5 Bft)
15.05.2016 13:48 13,8 C 63 % 1012,9 hPa 0,0 l/m 19,2 km/h (3 Bft) N-NW 332 3 min 1048 W/m 6,9 C 8,4 C 30,6 km/h (5 Bft)
15.05.2016 13:51 14,1 C 62 % 1013,0 hPa 0,0 l/m 17,0 km/h (3 Bft) N-NW 348 3 min 1048 W/m 6,9 C 9,4 C 33,8 km/h (5 Bft)
15.05.2016 13:54 14,0 C 62 % 1013,0 hPa 0,0 l/m 13,4 km/h (3 Bft) NW 319 0 min 209 W/m 6,8 C 10,6 C 25,7 km/h (4 Bft)
15.05.2016 13:57 14,3 C 61 % 1012,9 hPa 0,0 l/m 13,4 km/h (3 Bft) N-NW 347 3 min 884 W/m 6,9 C 10,9 C 29,0 km/h (5 Bft)
15.05.2016 14:00 14,7 C 59 % 1013,0 hPa 0,0 l/m 18,9 km/h (3 Bft) NW 306 3 min 900 W/m 6,8 C 9,7 C 33,8 km/h (5 Bft)
15.05.2016 14:03 14,6 C 58 % 1013,0 hPa 0,0 l/m 13,2 km/h (3 Bft) N 5 3 min 881 W/m 6,4 C 11,3 C 25,7 km/h (4 Bft)
15.05.2016 14:06 14,7 C 58 % 1013,0 hPa 0,0 l/m 13,4 km/h (3 Bft) W-NW 289 3 min 877 W/m 6,5 C 11,4 C 30,6 km/h (5 Bft)
15.05.2016 14:09 15,0 C 58 % 1013,1 hPa 0,0 l/m 16,9 km/h (3 Bft) W-NW 294 3 min 863 W/m 6,8 C 10,6 C 32,2 km/h (5 Bft)
15.05.2016 14:12 14,9 C 56 % 1013,1 hPa 0,0 l/m 18,4 km/h (3 Bft) N-NW 333 3 min 773 W/m 6,2 C 10,0 C 35,4 km/h (5 Bft)
15.05.2016 14:15 14,7 C 58 % 1013,1 hPa 0,0 l/m 19,5 km/h (3 Bft) NW 325 0 min 255 W/m 6,5 C 9,5 C 30,6 km/h (5 Bft)
15.05.2016 14:18 14,2 C 58 % 1013,1 hPa 0,0 l/m 17,0 km/h (3 Bft) N-NW 331 0 min 232 W/m 6,1 C 9,6 C 30,6 km/h (5 Bft)
15.05.2016 14:21 13,9 C 60 % 1013,1 hPa 0,0 l/m 16,7 km/h (3 Bft) W 277 0 min 186 W/m 6,3 C 9,3 C 33,8 km/h (5 Bft)
15.05.2016 14:24 13,8 C 59 % 1013,2 hPa 0,0 l/m 17,8 km/h (3 Bft) W-NW 292 3 min 840 W/m 5,9 C 8,8 C 32,2 km/h (5 Bft)
15.05.2016 14:27 13,7 C 59 % 1013,2 hPa 0,0 l/m 17,2 km/h (3 Bft) N-NW 348 3 min 923 W/m 5,8 C 8,9 C 32,2 km/h (5 Bft)
15.05.2016 14:30 14,1 C 60 % 1013,2 hPa 0,0 l/m 20,2 km/h (4 Bft) NW 318 3 min 979 W/m 6,5 C 8,5 C 33,8 km/h (5 Bft)
15.05.2016 14:33 14,1 C 60 % 1013,2 hPa 0,0 l/m 16,0 km/h (3 Bft) NW 311 3 min 1004 W/m 6,5 C 9,8 C 33,8 km/h (5 Bft)
15.05.2016 14:36 14,4 C 58 % 1013,2 hPa 0,0 l/m 16,2 km/h (3 Bft) NW 313 3 min 911 W/m 6,2 C 10,1 C 27,4 km/h (5 Bft)
15.05.2016 14:39 14,4 C 59 % 1013,3 hPa 0,0 l/m 16,3 km/h (3 Bft) N-NW 333 3 min 911 W/m 6,5 C 10,0 C 30,6 km/h (5 Bft)
15.05.2016 14:42 14,1 C 59 % 1013,3 hPa 0,0 l/m 17,4 km/h (3 Bft) NW 312 0 min 155 W/m 6,2 C 9,3 C 38,6 km/h (6 Bft)
15.05.2016 14:45 14,2 C 59 % 1013,3 hPa 0,0 l/m 17,5 km/h (3 Bft) NW 319 3 min 865 W/m 6,3 C 9,4 C 27,4 km/h (5 Bft)
15.05.2016 14:48 14,1 C 59 % 1013,4 hPa 0,0 l/m 19,0 km/h (3 Bft) NW 305 0 min 160 W/m 6,2 C 8,9 C 32,2 km/h (5 Bft)
15.05.2016 14:51 13,7 C 61 % 1013,3 hPa 0,0 l/m 18,3 km/h (3 Bft) N 350 0 min 264 W/m 6,3 C 8,6 C 29,0 km/h (5 Bft)
15.05.2016 14:54 13,5 C 62 % 1013,4 hPa 0,0 l/m 14,7 km/h (3 Bft) NO 43 0 min 220 W/m 6,4 C 9,5 C 32,2 km/h (5 Bft)
15.05.2016 14:57 13,3 C 64 % 1013,4 hPa 0,0 l/m 17,3 km/h (3 Bft) W 260 0 min 197 W/m 6,6 C 8,4 C 29,0 km/h (5 Bft)
15.05.2016 15:00 13,4 C 64 % 1013,4 hPa 0,0 l/m 13,7 km/h (3 Bft) W-NW 302 0 min 211 W/m 6,7 C 9,7 C 29,0 km/h (5 Bft)
15.05.2016 15:03 13,4 C 64 % 1013,4 hPa 0,0 l/m 15,6 km/h (3 Bft) NW 314 0 min 218 W/m 6,7 C 9,0 C 27,4 km/h (5 Bft)
15.05.2016 15:06 13,3 C 64 % 1013,4 hPa 0,0 l/m 19,9 km/h (4 Bft) NW 325 0 min 202 W/m 6,6 C 7,6 C 35,4 km/h (5 Bft)
15.05.2016 15:09 13,1 C 65 % 1013,5 hPa 0,0 l/m 16,7 km/h (3 Bft) NW 306 0 min 207 W/m 6,7 C 8,3 C 29,0 km/h (5 Bft)
15.05.2016 15:12 13,2 C 66 % 1013,5 hPa 0,0 l/m 18,5 km/h (3 Bft) N 351 0 min 207 W/m 7,0 C 7,9 C 27,4 km/h (5 Bft)
15.05.2016 15:15 13,3 C 63 % 1013,6 hPa 0,0 l/m 17,8 km/h (3 Bft) NW 304 0 min 141 W/m 6,4 C 8,2 C 29,0 km/h (5 Bft)
15.05.2016 15:18 12,9 C 65 % 1013,5 hPa 0,0 l/m 13,8 km/h (3 Bft) W-SW 251 0 min 158 W/m 6,5 C 9,1 C 22,5 km/h (4 Bft)
15.05.2016 15:21 12,9 C 64 % 1013,5 hPa 0,0 l/m 17,6 km/h (3 Bft) W-NW 299 0 min 158 W/m 6,3 C 7,8 C 35,4 km/h (5 Bft)
15.05.2016 15:24 13,3 C 64 % 1013,5 hPa 0,0 l/m 18,3 km/h (3 Bft) N-NW 348 3 min 798 W/m 6,6 C 8,0 C 29,0 km/h (5 Bft)
15.05.2016 15:27 13,4 C 62 % 1013,5 hPa 0,0 l/m 17,6 km/h (3 Bft) NW 325 0 min 130 W/m 6,3 C 8,4 C 27,4 km/h (5 Bft)
15.05.2016 15:30 13,3 C 62 % 1013,5 hPa 0,0 l/m 18,8 km/h (3 Bft) W-NW 282 0 min 193 W/m 6,2 C 7,9 C 32,2 km/h (5 Bft)
15.05.2016 15:33 13,5 C 63 % 1013,5 hPa 0,0 l/m 18,6 km/h (3 Bft) NW 325 3 min 788 W/m 6,6 C 8,2 C 33,8 km/h (5 Bft)
15.05.2016 15:36 13,9 C 58 % 1013,6 hPa 0,0 l/m 19,0 km/h (3 Bft) NW 323 3 min 793 W/m 5,8 C 8,6 C 30,6 km/h (5 Bft)
15.05.2016 15:39 13,9 C 57 % 1013,6 hPa 0,0 l/m 18,7 km/h (3 Bft) N-NW 343 3 min 566 W/m 5,5 C 8,7 C 37,0 km/h (5 Bft)
15.05.2016 15:42 14,0 C 58 % 1013,5 hPa 0,0 l/m 19,2 km/h (3 Bft) NW 307 3 min 759 W/m 5,9 C 8,7 C 29,0 km/h (5 Bft)
15.05.2016 15:45 14,1 C 55 % 1013,6 hPa 0,0 l/m 20,7 km/h (4 Bft) N-NW 328 3 min 793 W/m 5,2 C 8,4 C 45,1 km/h (6 Bft)
15.05.2016 15:48 13,9 C 58 % 1013,6 hPa 0,0 l/m 18,6 km/h (3 Bft) NW 307 3 min 816 W/m 5,8 C 8,7 C 30,6 km/h (5 Bft)
15.05.2016 15:51 14,1 C 59 % 1013,6 hPa 0,0 l/m 21,0 km/h (4 Bft) N-NO 19 3 min 904 W/m 6,2 C 8,3 C 30,6 km/h (5 Bft)
15.05.2016 15:54 14,1 C 60 % 1013,6 hPa 0,0 l/m 16,7 km/h (3 Bft) W-NW 296 3 min 882 W/m 6,5 C 9,5 C 33,8 km/h (5 Bft)
15.05.2016 15:57 14,6 C 59 % 1013,7 hPa 0,0 l/m 19,5 km/h (3 Bft) W-NW 287 3 min 809 W/m 6,7 C 9,4 C 32,2 km/h (5 Bft)
15.05.2016 16:00 14,7 C 56 % 1013,7 hPa 0,0 l/m 14,0 km/h (3 Bft) NW 323 3 min 821 W/m 6,0 C 11,2 C 37,0 km/h (5 Bft)
15.05.2016 16:03 14,4 C 57 % 1013,7 hPa 0,0 l/m 17,1 km/h (3 Bft) NW 319 3 min 821 W/m 6,0 C 9,8 C 33,8 km/h (5 Bft)
15.05.2016 16:06 14,1 C 60 % 1013,6 hPa 0,0 l/m 15,5 km/h (3 Bft) NW 315 0 min 121 W/m 6,5 C 9,9 C 29,0 km/h (5 Bft)
15.05.2016 16:09 14,2 C 60 % 1013,7 hPa 0,0 l/m 15,6 km/h (3 Bft) W-NW 285 3 min 754 W/m 6,5 C 10,0 C 29,0 km/h (5 Bft)
15.05.2016 16:12 14,1 C 60 % 1013,7 hPa 0,0 l/m 16,9 km/h (3 Bft) W 261 3 min 752 W/m 6,5 C 9,5 C 29,0 km/h (5 Bft)
15.05.2016 16:15 14,2 C 60 % 1013,6 hPa 0,0 l/m 12,6 km/h (3 Bft) W 277 3 min 737 W/m 6,5 C 11,1 C 27,4 km/h (5 Bft)
15.05.2016 16:18 14,4 C 59 % 1013,7 hPa 0,0 l/m 15,4 km/h (3 Bft) W 276 3 min 812 W/m 6,5 C 10,3 C 32,2 km/h (5 Bft)
15.05.2016 16:21 14,6 C 60 % 1013,5 hPa 0,0 l/m 14,3 km/h (3 Bft) NW 317 3 min 793 W/m 6,9 C 10,9 C 29,0 km/h (5 Bft)
15.05.2016 16:24 14,6 C 60 % 1013,6 hPa 0,0 l/m 18,9 km/h (3 Bft) W-NW 298 0 min 234 W/m 6,9 C 9,5 C 32,2 km/h (5 Bft)
15.05.2016 16:27 14,1 C 61 % 1013,6 hPa 0,0 l/m 13,4 km/h (3 Bft) W-NW 284 0 min 262 W/m 6,7 C 10,7 C 25,7 km/h (4 Bft)
15.05.2016 16:30 13,8 C 62 % 1013,7 hPa 0,0 l/m 22,2 km/h (4 Bft) NW 325 0 min 188 W/m 6,6 C 7,6 C 32,2 km/h (5 Bft)
15.05.2016 16:33 13,6 C 62 % 1013,7 hPa 0,0 l/m 19,0 km/h (3 Bft) W-NW 300 0 min 109 W/m 6,5 C 8,2 C 33,8 km/h (5 Bft)
15.05.2016 16:36 13,3 C 64 % 1013,6 hPa 0,0 l/m 13,3 km/h (3 Bft) NW 316 0 min 197 W/m 6,6 C 9,8 C 29,0 km/h (5 Bft)
15.05.2016 16:39 13,0 C 63 % 1013,7 hPa 0,0 l/m 17,4 km/h (3 Bft) N-NW 336 0 min 167 W/m 6,1 C 7,9 C 32,2 km/h (5 Bft)
15.05.2016 16:42 13,0 C 63 % 1013,6 hPa 0,0 l/m 19,7 km/h (3 Bft) W 272 0 min 193 W/m 6,1 C 7,2 C 30,6 km/h (5 Bft)
15.05.2016 16:45 13,2 C 60 % 1013,7 hPa 0,0 l/m 17,7 km/h (3 Bft) W-SW 241 3 min 598 W/m 5,6 C 8,1 C 29,0 km/h (5 Bft)
15.05.2016 16:48 13,2 C 60 % 1013,6 hPa 0,0 l/m 17,8 km/h (3 Bft) NW 325 3 min 640 W/m 5,6 C 8,1 C 32,2 km/h (5 Bft)
15.05.2016 16:51 13,4 C 60 % 1013,7 hPa 0,0 l/m 20,1 km/h (4 Bft) NW 317 3 min 617 W/m 5,8 C 7,7 C 33,8 km/h (5 Bft)
15.05.2016 16:54 13,5 C 59 % 1013,7 hPa 0,0 l/m 20,0 km/h (4 Bft) N-NW 348 3 min 624 W/m 5,6 C 7,8 C 30,6 km/h (5 Bft)
15.05.2016 16:57 13,5 C 59 % 1013,7 hPa 0,0 l/m 19,2 km/h (3 Bft) W-NW 302 3 min 624 W/m 5,6 C 8,0 C 33,8 km/h (5 Bft)
15.05.2016 17:00 13,3 C 60 % 1013,8 hPa 0,0 l/m 20,0 km/h (4 Bft) NW 308 0 min 158 W/m 5,7 C 7,6 C 33,8 km/h (5 Bft)
15.05.2016 17:03 13,2 C 62 % 1013,7 hPa 0,0 l/m 18,4 km/h (3 Bft) NW 313 3 min 705 W/m 6,1 C 7,9 C 33,8 km/h (5 Bft)
15.05.2016 17:06 13,2 C 62 % 1013,7 hPa 0,0 l/m 16,2 km/h (3 Bft) NW 320 0 min 237 W/m 6,1 C 8,6 C 24,1 km/h (4 Bft)
15.05.2016 17:09 13,0 C 61 % 1013,6 hPa 0,0 l/m 15,7 km/h (3 Bft) NW 311 3 min 454 W/m 5,7 C 8,5 C 27,4 km/h (5 Bft)
15.05.2016 17:12 12,9 C 62 % 1013,7 hPa 0,0 l/m 19,2 km/h (3 Bft) N 355 0 min 86 W/m 5,8 C 7,3 C 30,6 km/h (5 Bft)
15.05.2016 17:15 12,7 C 64 % 1013,7 hPa 0,0 l/m 13,8 km/h (3 Bft) W-NW 293 3 min 659 W/m 6,1 C 8,9 C 29,0 km/h (5 Bft)
15.05.2016 17:18 12,8 C 62 % 1013,7 hPa 0,0 l/m 17,9 km/h (3 Bft) NW 322 0 min 279 W/m 5,7 C 7,5 C 30,6 km/h (5 Bft)
15.05.2016 17:21 12,7 C 61 % 1013,7 hPa 0,0 l/m 12,0 km/h (2 Bft) W-NW 294 0 min 128 W/m 5,4 C 9,6 C 29,0 km/h (5 Bft)
15.05.2016 17:24 12,4 C 64 % 1013,7 hPa 0,0 l/m 16,3 km/h (3 Bft) N-NO 27 0 min 195 W/m 5,8 C 7,6 C 29,0 km/h (5 Bft)
15.05.2016 17:27 12,4 C 65 % 1013,8 hPa 0,0 l/m 19,8 km/h (3 Bft) N 355 0 min 141 W/m 6,0 C 6,4 C 32,2 km/h (5 Bft)
15.05.2016 17:30 12,3 C 65 % 1013,7 hPa 0,0 l/m 12,3 km/h (2 Bft) W 275 3 min 587 W/m 5,9 C 9,0 C 22,5 km/h (4 Bft)
15.05.2016 17:33 12,4 C 65 % 1013,8 hPa 0,0 l/m 19,2 km/h (3 Bft) W 269 0 min 98 W/m 6,0 C 6,6 C 29,0 km/h (5 Bft)
15.05.2016 17:36 12,3 C 64 % 1013,9 hPa 0,0 l/m 14,8 km/h (3 Bft) W 275 0 min 120 W/m 5,7 C 8,0 C 33,8 km/h (5 Bft)
15.05.2016 17:39 12,2 C 63 % 1013,7 hPa 0,0 l/m 9,6 km/h (2 Bft) NW 308 0 min 190 W/m 5,4 C 10,2 C 19,3 km/h (3 Bft)
15.05.2016 17:42 12,2 C 64 % 1013,8 hPa 0,0 l/m 13,9 km/h (3 Bft) N-NW 335 3 min 524 W/m 5,6 C 8,2 C 27,4 km/h (5 Bft)
15.05.2016 17:45 12,6 C 65 % 1013,8 hPa 0,0 l/m 15,0 km/h (3 Bft) W-SW 239 3 min 538 W/m 6,2 C 8,3 C 29,0 km/h (5 Bft)
15.05.2016 17:48 12,5 C 64 % 1013,9 hPa 0,0 l/m 12,5 km/h (2 Bft) W 277 0 min 42 W/m 5,9 C 9,2 C 22,5 km/h (4 Bft)
15.05.2016 17:51 12,3 C 63 % 1013,9 hPa 0,0 l/m 15,3 km/h (3 Bft) W 279 0 min 58 W/m 5,5 C 7,8 C 25,7 km/h (4 Bft)
15.05.2016 17:54 12,3 C 64 % 1013,9 hPa 0,0 l/m 14,6 km/h (3 Bft) N-NW 348 3 min 499 W/m 5,7 C 8,1 C 27,4 km/h (5 Bft)
15.05.2016 17:57 12,2 C 64 % 1013,9 hPa 0,0 l/m 19,2 km/h (3 Bft) N 355 0 min 77 W/m 5,6 C 6,4 C 32,2 km/h (5 Bft)
15.05.2016 18:00 12,3 C 65 % 1013,8 hPa 0,0 l/m 16,2 km/h (3 Bft) W-SW 248 3 min 462 W/m 5,9 C 7,5 C 27,4 km/h (5 Bft)
15.05.2016 18:03 12,3 C 63 % 1014,0 hPa 0,0 l/m 19,8 km/h (3 Bft) N-NW 332 3 min 454 W/m 5,5 C 6,3 C 33,8 km/h (5 Bft)
15.05.2016 18:06 12,6 C 64 % 1013,8 hPa 0,0 l/m 16,4 km/h (3 Bft) N-NW 327 3 min 496 W/m 6,0 C 7,8 C 30,6 km/h (5 Bft)
15.05.2016 18:09 12,7 C 63 % 1013,9 hPa 0,0 l/m 19,7 km/h (3 Bft) NW 318 3 min 496 W/m 5,8 C 6,9 C 38,6 km/h (6 Bft)
15.05.2016 18:12 12,6 C 63 % 1014,0 hPa 0,0 l/m 18,0 km/h (3 Bft) N-NW 342 3 min 487 W/m 5,7 C 7,3 C 24,1 km/h (4 Bft)
15.05.2016 18:15 12,6 C 64 % 1013,9 hPa 0,0 l/m 17,4 km/h (3 Bft) N-NW 346 3 min 508 W/m 6,0 C 7,4 C 38,6 km/h (6 Bft)
15.05.2016 18:18 12,6 C 63 % 1013,9 hPa 0,0 l/m 12,8 km/h (3 Bft) NW 314 3 min 508 W/m 5,7 C 9,2 C 30,6 km/h (5 Bft)
15.05.2016 18:21 12,6 C 65 % 1013,9 hPa 0,0 l/m 13,4 km/h (3 Bft) N 355 3 min 439 W/m 6,2 C 8,9 C 24,1 km/h (4 Bft)
15.05.2016 18:24 12,7 C 63 % 1013,9 hPa 0,0 l/m 16,3 km/h (3 Bft) N-NW 342 3 min 476 W/m 5,8 C 7,9 C 24,1 km/h (4 Bft)
15.05.2016 18:27 12,8 C 63 % 1013,9 hPa 0,0 l/m 17,0 km/h (3 Bft) NW 319 3 min 220 W/m 5,9 C 7,8 C 30,6 km/h (5 Bft)
15.05.2016 18:30 12,9 C 66 % 1013,9 hPa 0,0 l/m 14,4 km/h (3 Bft) W 279 3 min 480 W/m 6,7 C 8,9 C 27,4 km/h (5 Bft)
15.05.2016 18:33 12,7 C 64 % 1013,9 hPa 0,0 l/m 18,4 km/h (3 Bft) W-NW 289 0 min 144 W/m 6,1 C 7,3 C 29,0 km/h (5 Bft)
15.05.2016 18:36 12,4 C 62 % 1013,9 hPa 0,0 l/m 14,9 km/h (3 Bft) N-NW 335 0 min 144 W/m 5,3 C 8,1 C 29,0 km/h (5 Bft)
15.05.2016 18:39 12,2 C 63 % 1013,9 hPa 0,0 l/m 16,9 km/h (3 Bft) S-SW 203 0 min 62 W/m 5,4 C 7,1 C 27,4 km/h (5 Bft)
15.05.2016 18:42 11,9 C 64 % 1014,0 hPa 0,0 l/m 19,5 km/h (3 Bft) NW 324 0 min 69 W/m 5,3 C 5,9 C 33,8 km/h (5 Bft)
15.05.2016 18:45 11,8 C 64 % 1013,9 hPa 0,0 l/m 16,1 km/h (3 Bft) N-NO 27 0 min 90 W/m 5,2 C 6,9 C 27,4 km/h (5 Bft)
15.05.2016 18:48 11,8 C 67 % 1014,0 hPa 0,0 l/m 14,4 km/h (3 Bft) N-NW 333 3 min 285 W/m 5,9 C 7,6 C 25,7 km/h (4 Bft)
15.05.2016 18:51 11,8 C 65 % 1014,0 hPa 0,0 l/m 19,8 km/h (3 Bft) NW 304 0 min 114 W/m 5,4 C 5,7 C 32,2 km/h (5 Bft)
15.05.2016 18:54 11,8 C 65 % 1014,0 hPa 0,0 l/m 18,3 km/h (3 Bft) NW 318 3 min 352 W/m 5,4 C 6,1 C 29,0 km/h (5 Bft)
15.05.2016 18:57 11,9 C 65 % 1014,0 hPa 0,0 l/m 13,2 km/h (3 Bft) N 355 0 min 151 W/m 5,5 C 8,2 C 30,6 km/h (5 Bft)
15.05.2016 19:00 11,8 C 66 % 1014,0 hPa 0,0 l/m 17,3 km/h (3 Bft) N-NW 333 3 min 186 W/m 5,7 C 6,5 C 32,2 km/h (5 Bft)
15.05.2016 19:03 11,9 C 67 % 1014,0 hPa 0,0 l/m 16,5 km/h (3 Bft) N-NW 340 3 min 355 W/m 6,0 C 6,9 C 29,0 km/h (5 Bft)
15.05.2016 19:06 12,2 C 67 % 1014,0 hPa 0,0 l/m 16,5 km/h (3 Bft) N 351 3 min 325 W/m 6,3 C 7,3 C 33,8 km/h (5 Bft)
15.05.2016 19:09 12,2 C 67 % 1014,0 hPa 0,0 l/m 14,3 km/h (3 Bft) NW 306 3 min 345 W/m 6,3 C 8,1 C 24,1 km/h (4 Bft)
15.05.2016 19:12 12,3 C 66 % 1014,0 hPa 0,0 l/m 17,6 km/h (3 Bft) NW 323 0 min 149 W/m 6,1 C 7,0 C 32,2 km/h (5 Bft)
15.05.2016 19:15 12,0 C 66 % 1014,0 hPa 0,0 l/m 15,6 km/h (3 Bft) W-NW 296 0 min 62 W/m 5,8 C 7,3 C 25,7 km/h (4 Bft)
15.05.2016 19:18 11,9 C 66 % 1014,0 hPa 0,0 l/m 17,1 km/h (3 Bft) NW 319 3 min 243 W/m 5,8 C 6,7 C 32,2 km/h (5 Bft)
15.05.2016 19:21 11,8 C 66 % 1014,0 hPa 0,0 l/m 15,1 km/h (3 Bft) N 355 3 min 229 W/m 5,7 C 7,3 C 30,6 km/h (5 Bft)
15.05.2016 19:24 11,7 C 67 % 1014,0 hPa 0,0 l/m 20,0 km/h (4 Bft) N-NW 337 3 min 160 W/m 5,8 C 5,5 C 35,4 km/h (5 Bft)
15.05.2016 19:27 11,6 C 66 % 1014,1 hPa 0,0 l/m 15,7 km/h (3 Bft) W-NW 298 3 min 236 W/m 5,5 C 6,8 C 29,0 km/h (5 Bft)
15.05.2016 19:30 11,5 C 66 % 1014,1 hPa 0,0 l/m 14,9 km/h (3 Bft) W 275 3 min 255 W/m 5,4 C 7,0 C 29,0 km/h (5 Bft)
15.05.2016 19:33 11,4 C 67 % 1014,1 hPa 0,0 l/m 14,2 km/h (3 Bft) W-NW 298 3 min 243 W/m 5,5 C 7,2 C 35,4 km/h (5 Bft)
15.05.2016 19:36 11,4 C 67 % 1014,1 hPa 0,0 l/m 15,0 km/h (3 Bft) W-NW 296 0 min 88 W/m 5,5 C 6,8 C 33,8 km/h (5 Bft)
15.05.2016 19:39 11,4 C 66 % 1014,2 hPa 0,0 l/m 12,9 km/h (3 Bft) NW 304 3 min 193 W/m 5,3 C 7,7 C 24,1 km/h (4 Bft)
15.05.2016 19:42 11,4 C 67 % 1014,2 hPa 0,0 l/m 10,3 km/h (2 Bft) NW 307 0 min 58 W/m 5,5 C 9,0 C 24,1 km/h (4 Bft)
15.05.2016 19:45 11,3 C 67 % 1014,2 hPa 0,0 l/m 11,6 km/h (2 Bft) S 179 3 min 163 W/m 5,4 C 8,2 C 27,4 km/h (5 Bft)
15.05.2016 19:48 11,2 C 67 % 1014,2 hPa 0,0 l/m 16,0 km/h (3 Bft) NW 325 0 min 69 W/m 5,3 C 6,2 C 25,7 km/h (4 Bft)
15.05.2016 19:51 11,1 C 69 % 1014,2 hPa 0,0 l/m 11,4 km/h (2 Bft) W 267 0 min 76 W/m 5,6 C 8,1 C 24,1 km/h (4 Bft)
15.05.2016 19:54 11,1 C 68 % 1014,2 hPa 0,0 l/m 16,0 km/h (3 Bft) W-NW 294 0 min 62 W/m 5,4 C 6,1 C 33,8 km/h (5 Bft)
15.05.2016 19:57 11,0 C 66 % 1014,2 hPa 0,0 l/m 16,0 km/h (3 Bft) NW 322 0 min 46 W/m 4,9 C 6,0 C 27,4 km/h (5 Bft)
15.05.2016 20:00 10,9 C 68 % 1014,3 hPa 0,0 l/m 15,1 km/h (3 Bft) N 350 0 min 70 W/m 5,2 C 6,2 C 27,4 km/h (5 Bft)
15.05.2016 20:03 10,9 C 70 % 1014,3 hPa 0,0 l/m 16,2 km/h (3 Bft) N-NW 329 0 min 70 W/m 5,6 C 5,8 C 25,7 km/h (4 Bft)
15.05.2016 20:06 10,9 C 69 % 1014,3 hPa 0,0 l/m 15,7 km/h (3 Bft) W-NW 299 0 min 63 W/m 5,4 C 5,9 C 27,4 km/h (5 Bft)
15.05.2016 20:09 10,9 C 69 % 1014,3 hPa 0,0 l/m 18,3 km/h (3 Bft) N-NW 347 0 min 49 W/m 5,4 C 5,0 C 27,4 km/h (5 Bft)
15.05.2016 20:12 10,8 C 69 % 1014,4 hPa 0,0 l/m 14,2 km/h (3 Bft) W-NW 285 0 min 49 W/m 5,3 C 6,4 C 25,7 km/h (4 Bft)
15.05.2016 20:15 10,8 C 70 % 1014,4 hPa 0,0 l/m 16,6 km/h (3 Bft) W 270 0 min 39 W/m 5,6 C 5,5 C 29,0 km/h (5 Bft)
15.05.2016 20:18 10,7 C 69 % 1014,4 hPa 0,0 l/m 15,2 km/h (3 Bft) N-NW 328 0 min 37 W/m 5,2 C 5,9 C 29,0 km/h (5 Bft)
15.05.2016 20:21 10,7 C 68 % 1014,4 hPa 0,0 l/m 13,7 km/h (3 Bft) W 270 0 min 33 W/m 5,0 C 6,5 C 30,6 km/h (5 Bft)
15.05.2016 20:24 10,7 C 68 % 1014,4 hPa 0,0 l/m 17,5 km/h (3 Bft) NW 309 0 min 37 W/m 5,0 C 5,0 C 27,4 km/h (5 Bft)
15.05.2016 20:27 10,7 C 70 % 1014,4 hPa 0,0 l/m 14,9 km/h (3 Bft) N-NW 329 0 min 54 W/m 5,5 C 6,0 C 25,7 km/h (4 Bft)
15.05.2016 20:30 10,6 C 67 % 1014,4 hPa 0,0 l/m 18,3 km/h (3 Bft) NW 308 0 min 26 W/m 4,7 C 4,6 C 30,6 km/h (5 Bft)
15.05.2016 20:33 10,5 C 68 % 1014,4 hPa 0,0 l/m 16,5 km/h (3 Bft) W-NW 290 0 min 28 W/m 4,8 C 5,1 C 29,0 km/h (5 Bft)
15.05.2016 20:36 10,4 C 68 % 1014,4 hPa 0,0 l/m 15,2 km/h (3 Bft) NW 317 0 min 26 W/m 4,8 C 5,5 C 27,4 km/h (5 Bft)
15.05.2016 20:39 10,4 C 68 % 1014,4 hPa 0,0 l/m 19,3 km/h (3 Bft) NW 319 0 min 26 W/m 4,8 C 4,0 C 30,6 km/h (5 Bft)
15.05.2016 20:42 10,4 C 66 % 1014,4 hPa 0,0 l/m 20,3 km/h (4 Bft) N-NW 333 0 min 35 W/m 4,3 C 3,7 C 33,8 km/h (5 Bft)
15.05.2016 20:45 10,4 C 68 % 1014,4 hPa 0,0 l/m 15,9 km/h (3 Bft) N-NW 336 0 min 30 W/m 4,8 C 5,3 C 29,0 km/h (5 Bft)
15.05.2016 20:48 10,3 C 69 % 1014,3 hPa 0,0 l/m 18,5 km/h (3 Bft) W-NW 295 0 min 25 W/m 4,9 C 4,2 C 32,2 km/h (5 Bft)
15.05.2016 20:51 10,3 C 70 % 1014,5 hPa 0,0 l/m 15,2 km/h (3 Bft) W-NW 302 0 min 28 W/m 5,1 C 5,4 C 25,7 km/h (4 Bft)
15.05.2016 20:54 10,3 C 69 % 1014,4 hPa 0,0 l/m 16,6 km/h (3 Bft) W-NW 294 0 min 16 W/m 4,9 C 4,9 C 27,4 km/h (5 Bft)
15.05.2016 20:57 10,3 C 68 % 1014,5 hPa 0,0 l/m 20,7 km/h (4 Bft) NW 319 0 min 12 W/m 4,7 C 3,5 C 32,2 km/h (5 Bft)
15.05.2016 21:00 10,3 C 69 % 1014,4 hPa 0,0 l/m 17,9 km/h (3 Bft) N-NW 338 0 min 11 W/m 4,9 C 4,4 C 29,0 km/h (5 Bft)
15.05.2016 21:03 10,2 C 69 % 1014,4 hPa 0,0 l/m 16,3 km/h (3 Bft) N-NW 331 0 min 9 W/m 4,8 C 4,9 C 27,4 km/h (5 Bft)
15.05.2016 21:06 10,2 C 69 % 1014,5 hPa 0,0 l/m 18,3 km/h (3 Bft) N-NW 330 0 min 9 W/m 4,8 C 4,1 C 29,0 km/h (5 Bft)
15.05.2016 21:09 10,1 C 69 % 1014,5 hPa 0,0 l/m 17,8 km/h (3 Bft) N-NW 330 0 min 7 W/m 4,7 C 4,2 C 35,4 km/h (5 Bft)
15.05.2016 21:12 10,1 C 70 % 1014,5 hPa 0,0 l/m 17,2 km/h (3 Bft) N 11 0 min 5 W/m 4,9 C 4,4 C 27,4 km/h (5 Bft)
15.05.2016 21:15 10,1 C 70 % 1014,5 hPa 0,0 l/m 14,1 km/h (3 Bft) NW 319 0 min 5 W/m 4,9 C 5,6 C 27,4 km/h (5 Bft)
15.05.2016 21:18 10,1 C 71 % 1014,5 hPa 0,0 l/m 15,1 km/h (3 Bft) N-NW 336 0 min 0 W/m 5,1 C 5,2 C 25,7 km/h (4 Bft)
15.05.2016 21:21 10,1 C 71 % 1014,6 hPa 0,0 l/m 17,1 km/h (3 Bft) NW 309 0 min 0 W/m 5,1 C 4,4 C 33,8 km/h (5 Bft)
15.05.2016 21:24 10,1 C 71 % 1014,5 hPa 0,0 l/m 13,6 km/h (3 Bft) N-NW 342 0 min 0 W/m 5,1 C 5,9 C 22,5 km/h (4 Bft)
15.05.2016 21:27 10,1 C 70 % 1014,5 hPa 0,0 l/m 17,5 km/h (3 Bft) N-NW 342 0 min 0 W/m 4,9 C 4,3 C 30,6 km/h (5 Bft)
15.05.2016 21:30 10,0 C 71 % 1014,6 hPa 0,0 l/m 14,1 km/h (3 Bft) W-NW 283 0 min 0 W/m 5,0 C 5,5 C 24,1 km/h (4 Bft)
15.05.2016 21:33 10,0 C 70 % 1014,7 hPa 0,0 l/m 13,7 km/h (3 Bft) NW 326 0 min 0 W/m 4,8 C 5,7 C 24,1 km/h (4 Bft)
15.05.2016 21:36 9,9 C 70 % 1014,6 hPa 0,0 l/m 18,4 km/h (3 Bft) NW 313 0 min 0 W/m 4,7 C 3,7 C 29,0 km/h (5 Bft)
15.05.2016 21:39 9,9 C 72 % 1014,7 hPa 0,0 l/m 14,1 km/h (3 Bft) N-NW 327 0 min 0 W/m 5,1 C 5,4 C 24,1 km/h (4 Bft)
15.05.2016 21:42 9,8 C 71 % 1014,7 hPa 0,0 l/m 20,1 km/h (4 Bft) NW 318 0 min 0 W/m 4,8 C 3,0 C 27,4 km/h (5 Bft)
15.05.2016 21:45 9,9 C 72 % 1014,7 hPa 0,0 l/m 12,7 km/h (3 Bft) N 5 0 min 0 W/m 5,1 C 6,1 C 19,3 km/h (3 Bft)
15.05.2016 21:48 9,9 C 73 % 1014,8 hPa 0,0 l/m 14,3 km/h (3 Bft) NW 317 0 min 0 W/m 5,3 C 5,3 C 22,5 km/h (4 Bft)
15.05.2016 21:51 9,9 C 71 % 1014,8 hPa 0,0 l/m 16,7 km/h (3 Bft) N 5 0 min 0 W/m 4,9 C 4,3 C 29,0 km/h (5 Bft)
15.05.2016 21:54 9,9 C 71 % 1014,8 hPa 0,0 l/m 17,1 km/h (3 Bft) N-NW 341 0 min 0 W/m 4,9 C 4,2 C 32,2 km/h (5 Bft)
15.05.2016 21:57 9,8 C 70 % 1014,8 hPa 0,0 l/m 21,2 km/h (4 Bft) N-NW 327 0 min 0 W/m 4,6 C 2,6 C 38,6 km/h (6 Bft)
15.05.2016 22:00 9,8 C 70 % 1014,7 hPa 0,0 l/m 17,1 km/h (3 Bft) N-NW 332 0 min 0 W/m 4,6 C 4,1 C 27,4 km/h (5 Bft)
15.05.2016 22:03 9,9 C 71 % 1014,8 hPa 0,0 l/m 14,7 km/h (3 Bft) NW 310 0 min 0 W/m 4,9 C 5,1 C 24,1 km/h (4 Bft)
15.05.2016 22:06 9,9 C 71 % 1014,8 hPa 0,0 l/m 14,6 km/h (3 Bft) N-NW 340 0 min 0 W/m 4,9 C 5,2 C 20,9 km/h (4 Bft)
15.05.2016 22:09 9,9 C 71 % 1014,8 hPa 0,0 l/m 15,9 km/h (3 Bft) N-NW 339 0 min 0 W/m 4,9 C 4,6 C 25,7 km/h (4 Bft)
15.05.2016 22:12 9,9 C 71 % 1014,8 hPa 0,0 l/m 16,3 km/h (3 Bft) NW 325 0 min 0 W/m 4,9 C 4,5 C 30,6 km/h (5 Bft)
15.05.2016 22:15 9,8 C 71 % 1014,8 hPa 0,0 l/m 15,4 km/h (3 Bft) N-NW 343 0 min 0 W/m 4,8 C 4,7 C 22,5 km/h (4 Bft)
15.05.2016 22:18 9,8 C 71 % 1014,8 hPa 0,0 l/m 21,1 km/h (4 Bft) N-NW 330 0 min 0 W/m 4,8 C 2,7 C 32,2 km/h (5 Bft)
15.05.2016 22:21 9,8 C 70 % 1014,9 hPa 0,0 l/m 16,8 km/h (3 Bft) N 360 0 min 0 W/m 4,6 C 4,2 C 27,4 km/h (5 Bft)
15.05.2016 22:24 9,8 C 71 % 1014,8 hPa 0,0 l/m 18,2 km/h (3 Bft) N-NW 327 0 min 0 W/m 4,8 C 3,6 C 27,4 km/h (5 Bft)
15.05.2016 22:27 9,8 C 70 % 1014,8 hPa 0,0 l/m 18,3 km/h (3 Bft) NW 308 0 min 0 W/m 4,6 C 3,6 C 30,6 km/h (5 Bft)
15.05.2016 22:30 9,7 C 71 % 1014,8 hPa 0,0 l/m 15,2 km/h (3 Bft) NW 326 0 min 0 W/m 4,7 C 4,7 C 22,5 km/h (4 Bft)
15.05.2016 22:33 9,7 C 72 % 1014,9 hPa 0,0 l/m 14,6 km/h (3 Bft) N-NW 334 0 min 0 W/m 4,9 C 4,9 C 24,1 km/h (4 Bft)
15.05.2016 22:36 9,7 C 72 % 1014,8 hPa 0,0 l/m 12,7 km/h (3 Bft) N 5 0 min 0 W/m 4,9 C 5,8 C 22,5 km/h (4 Bft)
15.05.2016 22:39 9,7 C 72 % 1014,9 hPa 0,0 l/m 12,6 km/h (3 Bft) N-NW 330 0 min 0 W/m 4,9 C 5,9 C 22,5 km/h (4 Bft)
15.05.2016 22:42 9,7 C 72 % 1014,9 hPa 0,0 l/m 17,7 km/h (3 Bft) NW 306 0 min 0 W/m 4,9 C 3,7 C 25,7 km/h (4 Bft)
15.05.2016 22:45 9,7 C 72 % 1014,8 hPa 0,0 l/m 14,3 km/h (3 Bft) NW 306 0 min 0 W/m 4,9 C 5,1 C 24,1 km/h (4 Bft)
15.05.2016 22:48 9,7 C 72 % 1014,8 hPa 0,0 l/m 14,1 km/h (3 Bft) N 11 0 min 0 W/m 4,9 C 5,2 C 24,1 km/h (4 Bft)
15.05.2016 22:51 9,7 C 72 % 1014,8 hPa 0,0 l/m 13,6 km/h (3 Bft) N-NW 346 0 min 0 W/m 4,9 C 5,4 C 22,5 km/h (4 Bft)
15.05.2016 22:54 9,7 C 72 % 1014,8 hPa 0,0 l/m 14,4 km/h (3 Bft) NW 315 0 min 0 W/m 4,9 C 5,0 C 29,0 km/h (5 Bft)
15.05.2016 22:57 9,7 C 72 % 1014,8 hPa 0,0 l/m 15,0 km/h (3 Bft) NW 304 0 min 0 W/m 4,9 C 4,8 C 22,5 km/h (4 Bft)
15.05.2016 23:00 9,6 C 71 % 1014,9 hPa 0,0 l/m 14,1 km/h (3 Bft) W-NW 286 0 min 0 W/m 4,6 C 5,0 C 22,5 km/h (4 Bft)
15.05.2016 23:03 9,6 C 72 % 1014,9 hPa 0,0 l/m 12,6 km/h (3 Bft) W-NW 295 0 min 0 W/m 4,8 C 5,8 C 20,9 km/h (4 Bft)
15.05.2016 23:06 9,7 C 72 % 1014,9 hPa 0,0 l/m 14,3 km/h (3 Bft) NW 322 0 min 0 W/m 4,9 C 5,1 C 29,0 km/h (5 Bft)
15.05.2016 23:09 9,6 C 72 % 1015,0 hPa 0,0 l/m 13,5 km/h (3 Bft) N-NW 333 0 min 0 W/m 4,8 C 5,3 C 22,5 km/h (4 Bft)
15.05.2016 23:12 9,7 C 72 % 1014,9 hPa 0,0 l/m 13,5 km/h (3 Bft) W-NW 285 0 min 0 W/m 4,9 C 5,4 C 22,5 km/h (4 Bft)
15.05.2016 23:15 9,7 C 71 % 1015,0 hPa 0,0 l/m 12,8 km/h (3 Bft) W 277 0 min 0 W/m 4,7 C 5,8 C 22,5 km/h (4 Bft)
15.05.2016 23:18 9,7 C 74 % 1015,0 hPa 0,0 l/m 12,2 km/h (2 Bft) W-NW 292 0 min 0 W/m 5,3 C 6,1 C 22,5 km/h (4 Bft)
15.05.2016 23:21 9,6 C 74 % 1015,0 hPa 0,0 l/m 12,7 km/h (3 Bft) NW 314 0 min 0 W/m 5,2 C 5,7 C 22,5 km/h (4 Bft)
15.05.2016 23:24 9,5 C 75 % 1015,0 hPa 0,0 l/m 10,2 km/h (2 Bft) W-SW 247 0 min 0 W/m 5,3 C 6,9 C 20,9 km/h (4 Bft)
15.05.2016 23:27 9,4 C 77 % 1014,9 hPa 0,0 l/m 6,6 km/h (2 Bft) W-NW 294 0 min 0 W/m 5,6 C 9,3 C 16,1 km/h (3 Bft)
15.05.2016 23:30 9,4 C 77 % 1014,9 hPa 0,0 l/m 13,0 km/h (3 Bft) W 273 0 min 0 W/m 5,6 C 5,3 C 22,5 km/h (4 Bft)
15.05.2016 23:33 9,3 C 78 % 1015,0 hPa 0,0 l/m 11,4 km/h (2 Bft) W 259 0 min 0 W/m 5,7 C 6,0 C 19,3 km/h (3 Bft)
15.05.2016 23:36 9,3 C 78 % 1015,0 hPa 0,0 l/m 12,9 km/h (3 Bft) W 279 0 min 0 W/m 5,7 C 5,3 C 22,5 km/h (4 Bft)
15.05.2016 23:39 9,3 C 78 % 1015,0 hPa 0,0 l/m 10,7 km/h (2 Bft) SW 215 0 min 0 W/m 5,7 C 6,4 C 24,1 km/h (4 Bft)
15.05.2016 23:42 9,1 C 77 % 1015,1 hPa 0,0 l/m 13,6 km/h (3 Bft) W-NW 302 0 min 0 W/m 5,3 C 4,7 C 25,7 km/h (4 Bft)
15.05.2016 23:45 8,8 C 78 % 1015,1 hPa 0,0 l/m 10,2 km/h (2 Bft) N 350 0 min 0 W/m 5,2 C 6,1 C 20,9 km/h (4 Bft)
15.05.2016 23:48 8,5 C 80 % 1015,3 hPa 0,6 l/m 8,4 km/h (2 Bft) W 265 0 min 0 W/m 5,3 C 7,0 C 20,9 km/h (4 Bft)
15.05.2016 23:51 8,2 C 82 % 1015,1 hPa 0,4 l/m 11,5 km/h (2 Bft) W 277 0 min 0 W/m 5,3 C 4,7 C 20,9 km/h (4 Bft)
15.05.2016 23:54 8,1 C 83 % 1015,2 hPa 0,2 l/m 10,9 km/h (2 Bft) W-NW 296 0 min 0 W/m 5,4 C 4,9 C 19,3 km/h (3 Bft)
15.05.2016 23:57 8,0 C 83 % 1015,1 hPa 0,0 l/m 12,1 km/h (2 Bft) W 263 0 min 0 W/m 5,3 C 4,2 C 19,3 km/h (3 Bft)
_ Min-Zeit 06:15 15:45 00:00 - 23:27 - - - - 06:15 06:15 06:21
Minimum _ 7,9 C 55 % 1009,4 hPa - 6,6 km/h (2 Bft) - - - - 3,4 C 0,7 C 14,5 km/h (3 Bft)
_ Max-Zeit 14:12 23:54 23:48 23:48 01:09 - - 08:03 13:48 15:12 14:06 15:45
Maximum _ 15,1 C 83 % 1015,3 hPa 0,6 l/m 22,4 km/h
W (4 Bft)
- - 3 min 1048 W/m 7,0 C 11,4 C 45,1 km/h
W-NW (6 Bft)
Durchschnitt _ 10,7 C 70 % 1012,3 hPa #1,4 l/m 16,0 km/h (3 Bft) NW - #4:39 h 274 W/m 5,3 C 5,7 C 28,5 km/h (5 Bft)
2016 Cux-Wetter.de -Die Nutzung der Wetterdaten nur mit ausdrcklicher Genehmigung